Observation data for Segovia 7SSW on 03/05/2021      Previous  Date  Next       Current Mesonet Observations  Soil Data  Daily Summary Page  Observations in Plain Language
KSE2 050600Z 20005KT 14/11 A30 RMK A01 T01380105  RH  080%=      5-min Rain = 0
KSE2 050601Z 20005KT 14/10 A30 RMK A01 T01370101  RH  079%=      5-min Rain = 0
KSE2 050602Z 20005KT 13/10 A30 RMK A01 T01340099  RH  080%=      5-min Rain = 0
KSE2 050603Z 20005KT 13/10 A30 RMK A01 T01320098  RH  080%=      5-min Rain = 0
KSE2 050604Z 20005KT 13/10 A30 RMK A01 T01300098  RH  081%=      5-min Rain = 0
KSE2 050605Z 20005KT 13/10 A30 RMK A01 T01280097  RH  081%=      5-min Rain = 0
KSE2 050606Z 19004KT 13/10 A30 RMK A01 T01280098  RH  082%=      5-min Rain = 0
KSE2 050607Z 20004KT 13/10 A30 RMK A01 T01270098  RH  083%=      5-min Rain = 0
KSE2 050608Z 20004KT 13/10 A30 RMK A01 T01260098  RH  083%=      5-min Rain = 0
KSE2 050609Z 20004KT 13/10 A2999 RMK A01 T01250097  RH  083%=      5-min Rain = 0
KSE2 050610Z 19003KT 13/10 A2999 RMK A01 T01250097  RH  083%=      5-min Rain = 0
KSE2 050611Z 19003KT 12/10 A2999 RMK A01 T01240098  RH  084%=      5-min Rain = 0
KSE2 050612Z 19004KT 12/10 A2999 RMK A01 T01240097  RH  084%=      5-min Rain = 0
KSE2 050613Z 19005KT 12/10 A2999 RMK A01 T01220095  RH  084%=      5-min Rain = 0
KSE2 050614Z 19006KT 12/10 A2999 RMK A01 T01220095  RH  084%=      5-min Rain = 0
KSE2 050615Z 19006KT 12/10 A2999 RMK A01 T01210096  RH  084%=      5-min Rain = 0
KSE2 050616Z 19006KT 12/10 A2999 RMK A01 T01210096  RH  085%=      5-min Rain = 0
KSE2 050617Z 18006KT 12/10 A2999 RMK A01 T01210097  RH  085%=      5-min Rain = 0
KSE2 050618Z 18005KT 12/10 A2999 RMK A01 T01210097  RH  085%=      5-min Rain = 0
KSE2 050619Z 18005KT 12/10 A2999 RMK A01 T01210097  RH  085%=      5-min Rain = 0
KSE2 050620Z 17003KT 12/10 A2999 RMK A01 T01200097  RH  085%=      5-min Rain = 0
KSE2 050621Z 18003KT 12/10 A2999 RMK A01 T01200096  RH  085%=      5-min Rain = 0
KSE2 050622Z 18004KT 12/10 A2999 RMK A01 T01200096  RH  085%=      5-min Rain = 0
KSE2 050623Z 18004KT 12/10 A2999 RMK A01 T01190095  RH  085%=      5-min Rain = 0
KSE2 050624Z 18005KT 12/10 A2999 RMK A01 T01190096  RH  086%=      5-min Rain = 0
KSE2 050625Z 18005KT 12/10 A2999 RMK A01 T01190096  RH  086%=      5-min Rain = 0
KSE2 050626Z 18005KT 12/10 A2999 RMK A01 T01180095  RH  086%=      5-min Rain = 0
KSE2 050627Z 18005KT 12/10 A2999 RMK A01 T01170095  RH  086%=      5-min Rain = 0
KSE2 050628Z 17006KT 12/09 A2999 RMK A01 T01160094  RH  086%=      5-min Rain = 0
KSE2 050629Z 18006KT 12/09 A2999 RMK A01 T01160094  RH  086%=      5-min Rain = 0
KSE2 050630Z 18005KT 12/09 A2999 RMK A01 T01150094  RH  087%=      5-min Rain = 0
KSE2 050631Z 18006KT 12/09 A2999 RMK A01 T01150093  RH  087%=      5-min Rain = 0
KSE2 050632Z 19005KT 12/09 A2998 RMK A01 T01150094  RH  087%=      5-min Rain = 0
KSE2 050633Z 18006KT 12/09 A2998 RMK A01 T01150094  RH  087%=      5-min Rain = 0
KSE2 050634Z 18006KT 11/10 A2998 RMK A01 T01140095  RH  088%=      5-min Rain = 0
KSE2 050635Z 18007KT 12/10 A2998 RMK A01 T01150096  RH  088%=      5-min Rain = 0
KSE2 050636Z 18006KT 12/10 A2998 RMK A01 T01160096  RH  088%=      5-min Rain = 0
KSE2 050637Z 18007KT 12/10 A2998 RMK A01 T01160097  RH  088%=      5-min Rain = 0
KSE2 050638Z 19007KT 12/10 A2998 RMK A01 T01170098  RH  088%=      5-min Rain = 0
KSE2 050639Z 19007KT 12/10 A2998 RMK A01 T01180099  RH  088%=      5-min Rain = 0
KSE2 050640Z 19007KT 12/10 A2998 RMK A01 T01190100  RH  088%=      5-min Rain = 0
KSE2 050641Z 19007KT 12/10 A2998 RMK A01 T01200100  RH  088%=      5-min Rain = 0
KSE2 050642Z 19008KT 12/10 A2998 RMK A01 T01200100  RH  088%=      5-min Rain = 0
KSE2 050643Z 19008KT 12/10 A2998 RMK A01 T01200101  RH  088%=      5-min Rain = 0
KSE2 050644Z 19007KT 12/10 A2998 RMK A01 T01210101  RH  088%=      5-min Rain = 0
KSE2 050645Z 19008KT 12/10 A2998 RMK A01 T01210101  RH  087%=      5-min Rain = 0
KSE2 050646Z 19007KT 12/10 A2998 RMK A01 T01220102  RH  088%=      5-min Rain = 0
KSE2 050647Z 19007KT 12/10 A2998 RMK A01 T01220102  RH  088%=      5-min Rain = 0
KSE2 050648Z 19007KT 12/10 A2998 RMK A01 T01220102  RH  087%=      5-min Rain = 0
KSE2 050649Z 18007KT 12/10 A2998 RMK A01 T01220102  RH  087%=      5-min Rain = 0
KSE2 050650Z 18007KT 12/10 A2998 RMK A01 T01230102  RH  087%=      5-min Rain = 0
KSE2 050651Z 18008KT 12/10 A2998 RMK A01 T01230103  RH  088%=      5-min Rain = 0
KSE2 050652Z 18008KT 12/10 A2998 RMK A01 T01230103  RH  088%=      5-min Rain = 0
KSE2 050653Z 18007KT 12/10 A2998 RMK A01 T01230103  RH  088%=      5-min Rain = 0
KSE2 050654Z 18007KT 12/10 A2998 RMK A01 T01240104  RH  088%=      5-min Rain = 0
KSE2 050655Z 18007KT 13/10 A2998 RMK A01 T01250104  RH  087%=      5-min Rain = 0
KSE2 050656Z 18008KT 13/10 A2998 RMK A01 T01250104  RH  087%=      5-min Rain = 0
KSE2 050657Z 18008KT 13/11 A2998 RMK A01 T01250105  RH  087%=      5-min Rain = 0
KSE2 050658Z 17008KT 13/11 A2998 RMK A01 T01260106  RH  087%=      5-min Rain = 0
KSE2 050659Z 18007KT 13/11 A2998 RMK A01 T01270106  RH  087%=      5-min Rain = 0
KSE2 050700Z 17008KT 13/11 A2997 RMK A01 T01270105  RH  087%=      5-min Rain = 0
KSE2 050701Z 18008KT 13/11 A2997 RMK A01 T01270106  RH  087%=      5-min Rain = 0
KSE2 050702Z 17006KT 13/11 A2997 RMK A01 T01270106  RH  087%=      5-min Rain = 0
KSE2 050703Z 17007KT 13/11 A2997 RMK A01 T01270106  RH  087%=      5-min Rain = 0
KSE2 050704Z 18007KT 13/11 A2997 RMK A01 T01270106  RH  087%=      5-min Rain = 0
KSE2 050705Z 18007KT 13/11 A2997 RMK A01 T01270106  RH  087%=      5-min Rain = 0
KSE2 050706Z 18007KT 13/11 A2997 RMK A01 T01270106  RH  087%=      5-min Rain = 0
KSE2 050707Z 18007KT 13/11 A2997 RMK A01 T01260105  RH  087%=      5-min Rain = 0
KSE2 050708Z 18006KT 13/11 A2997 RMK A01 T01260106  RH  087%=      5-min Rain = 0
KSE2 050709Z 18007KT 13/11 A2997 RMK A01 T01250105  RH  087%=      5-min Rain = 0
KSE2 050710Z 18007KT 13/11 A2997 RMK A01 T01250105  RH  088%=      5-min Rain = 0
KSE2 050711Z 18007KT 13/11 A2997 RMK A01 T01250105  RH  088%=      5-min Rain = 0
KSE2 050712Z 18006KT 12/11 A2997 RMK A01 T01240105  RH  088%=      5-min Rain = 0
KSE2 050713Z 18007KT 12/11 A2997 RMK A01 T01240105  RH  088%=      5-min Rain = 0
KSE2 050714Z 18008KT 12/11 A2997 RMK A01 T01230105  RH  089%=      5-min Rain = 0
KSE2 050715Z 18006KT 12/11 A2997 RMK A01 T01240106  RH  089%=      5-min Rain = 0
KSE2 050716Z 18008KT 12/11 A2997 RMK A01 T01240105  RH  089%=      5-min Rain = 0
KSE2 050717Z 18008KT 12/11 A2997 RMK A01 T01240106  RH  089%=      5-min Rain = 0
KSE2 050718Z 18007KT 12/11 A2997 RMK A01 T01240106  RH  089%=      5-min Rain = 0
KSE2 050719Z 18008KT 12/11 A2997 RMK A01 T01240106  RH  089%=      5-min Rain = 0
KSE2 050720Z 17007KT 12/11 A2997 RMK A01 T01240106  RH  089%=      5-min Rain = 0
KSE2 050721Z 18008KT 13/11 A2997 RMK A01 T01250107  RH  089%=      5-min Rain = 0
KSE2 050722Z 17007KT 13/11 A2997 RMK A01 T01250107  RH  089%=      5-min Rain = 0
KSE2 050723Z 17007KT 13/11 A2997 RMK A01 T01250107  RH  089%=      5-min Rain = 0
KSE2 050724Z 18007KT 13/11 A2997 RMK A01 T01250107  RH  089%=      5-min Rain = 0
KSE2 050725Z 18007KT 13/11 A2997 RMK A01 T01250107  RH  089%=      5-min Rain = 0
KSE2 050726Z 17007KT 13/11 A2997 RMK A01 T01250107  RH  089%=      5-min Rain = 0
KSE2 050727Z 18007KT 13/11 A2997 RMK A01 T01250107  RH  089%=      5-min Rain = 0
KSE2 050728Z 17007KT 13/11 A2997 RMK A01 T01250107  RH  089%=      5-min Rain = 0
KSE2 050729Z 17007KT 12/11 A2997 RMK A01 T01240107  RH  089%=      5-min Rain = 0
KSE2 050730Z 17006KT 12/11 A2997 RMK A01 T01240106  RH  089%=      5-min Rain = 0
KSE2 050731Z 17007KT 12/11 A2997 RMK A01 T01240106  RH  089%=      5-min Rain = 0
KSE2 050732Z 17007KT 12/11 A2997 RMK A01 T01230106  RH  089%=      5-min Rain = 0
KSE2 050733Z 17007KT 12/11 A2997 RMK A01 T01230107  RH  090%=      5-min Rain = 0
KSE2 050734Z 17006KT 12/11 A2996 RMK A01 T01230106  RH  090%=      5-min Rain = 0
KSE2 050735Z 18006KT 12/11 A2996 RMK A01 T01230107  RH  090%=      5-min Rain = 0
KSE2 050736Z 17007KT 12/11 A2996 RMK A01 T01230107  RH  090%=      5-min Rain = 0
KSE2 050737Z 18007KT 12/11 A2996 RMK A01 T01230107  RH  090%=      5-min Rain = 0
KSE2 050738Z 17008KT 12/11 A2996 RMK A01 T01230107  RH  090%=      5-min Rain = 0
KSE2 050739Z 18007KT 12/11 A2996 RMK A01 T01230108  RH  090%=      5-min Rain = 0
KSE2 050740Z 18007KT 12/11 A2996 RMK A01 T01230108  RH  090%=      5-min Rain = 0
KSE2 050741Z 18009KT 12/11 A2996 RMK A01 T01230108  RH  090%=      5-min Rain = 0
KSE2 050742Z 18007KT 12/11 A2996 RMK A01 T01240108  RH  090%=      5-min Rain = 0
KSE2 050743Z 18008KT 12/11 A2996 RMK A01 T01240108  RH  090%=      5-min Rain = 0
KSE2 050744Z 18006KT 12/11 A2996 RMK A01 T01240108  RH  090%=      5-min Rain = 0
KSE2 050745Z 19007KT 12/11 A2996 RMK A01 T01230107  RH  090%=      5-min Rain = 0
KSE2 050746Z 19007KT 12/11 A2996 RMK A01 T01220107  RH  090%=      5-min Rain = 0
KSE2 050747Z 19007KT 12/11 A2996 RMK A01 T01220107  RH  091%=      5-min Rain = 0
KSE2 050748Z 19008KT 12/11 A2996 RMK A01 T01220107  RH  091%=      5-min Rain = 0
KSE2 050749Z 19007KT 12/11 A2996 RMK A01 T01210107  RH  091%=      5-min Rain = 0
KSE2 050750Z 19007KT 12/11 A2996 RMK A01 T01210107  RH  091%=      5-min Rain = 0
KSE2 050751Z 19007KT 12/11 A2996 RMK A01 T01210107  RH  091%=      5-min Rain = 0
KSE2 050752Z 19008KT 12/11 A2996 RMK A01 T01210107  RH  091%=      5-min Rain = 0
KSE2 050753Z 19008KT 12/11 A2996 RMK A01 T01210108  RH  091%=      5-min Rain = 0
KSE2 050754Z 19008KT 12/11 A2996 RMK A01 T01220108  RH  091%=      5-min Rain = 0
KSE2 050755Z 19007KT 12/11 A2996 RMK A01 T01220108  RH  091%=      5-min Rain = 0
KSE2 050756Z 19007KT 12/11 A2996 RMK A01 T01220108  RH  091%=      5-min Rain = 0
KSE2 050757Z 19008KT 12/11 A2996 RMK A01 T01220108  RH  091%=      5-min Rain = 0
KSE2 050758Z 19009KT 12/11 A2996 RMK A01 T01220109  RH  091%=      5-min Rain = 0
KSE2 050759Z 19008KT 12/11 A2996 RMK A01 T01230110  RH  092%=      5-min Rain = 0
KSE2 050800Z 19007KT 12/11 A2996 RMK A01 T01230109  RH  091%=      5-min Rain = 0
KSE2 050801Z 19008KT 12/11 A2996 RMK A01 T01230108  RH  091%=      5-min Rain = 0
KSE2 050802Z 19008KT 12/11 A2996 RMK A01 T01220109  RH  091%=      5-min Rain = 0
KSE2 050803Z 20006KT 12/11 A2996 RMK A01 T01220109  RH  091%=      5-min Rain = 0
KSE2 050804Z 19008KT 12/11 A2996 RMK A01 T01220109  RH  091%=      5-min Rain = 0
KSE2 050805Z 19007KT 12/11 A2996 RMK A01 T01220109  RH  091%=      5-min Rain = 0
KSE2 050806Z 18007KT 12/11 A2996 RMK A01 T01220108  RH  092%=      5-min Rain = 0
KSE2 050807Z 18007KT 12/11 A2996 RMK A01 T01220108  RH  092%=      5-min Rain = 0
KSE2 050808Z 18007KT 12/11 A2996 RMK A01 T01220109  RH  092%=      5-min Rain = 0
KSE2 050809Z 19008KT 12/11 A2996 RMK A01 T01210108  RH  092%=      5-min Rain = 0
KSE2 050810Z 19007KT 12/11 A2996 RMK A01 T01210108  RH  092%=      5-min Rain = 0
KSE2 050811Z 19007KT 12/11 A2996 RMK A01 T01210108  RH  092%=      5-min Rain = 0
KSE2 050812Z 19007KT 12/11 A2996 RMK A01 T01210109  RH  092%=      5-min Rain = 0
KSE2 050813Z 20006KT 12/11 A2996 RMK A01 T01210109  RH  092%=      5-min Rain = 0
KSE2 050814Z 19005KT 12/11 A2996 RMK A01 T01210109  RH  092%=      5-min Rain = 0
KSE2 050815Z 19007KT 12/11 A2996 RMK A01 T01210108  RH  092%=      5-min Rain = 0
KSE2 050816Z 19007KT 12/11 A2996 RMK A01 T01210109  RH  092%=      5-min Rain = 0
KSE2 050817Z 19006KT 12/11 A2996 RMK A01 T01210109  RH  092%=      5-min Rain = 0
KSE2 050818Z 19007KT 12/11 A2996 RMK A01 T01210109  RH  092%=      5-min Rain = 0
KSE2 050819Z 19006KT 12/11 A2996 RMK A01 T01200109  RH  093%=      5-min Rain = 0
KSE2 050820Z 20008KT 12/11 A2996 RMK A01 T01210109  RH  093%=      5-min Rain = 0
KSE2 050821Z 19006KT 12/11 A2996 RMK A01 T01210109  RH  093%=      5-min Rain = 0
KSE2 050822Z 19007KT 12/11 A2996 RMK A01 T01210110  RH  093%=      5-min Rain = 0
KSE2 050823Z 19007KT 12/11 A2996 RMK A01 T01220110  RH  093%=      5-min Rain = 0
KSE2 050824Z 19006KT 12/11 A2996 RMK A01 T01210110  RH  093%=      5-min Rain = 0
KSE2 050825Z 19006KT 12/11 A2996 RMK A01 T01210109  RH  092%=      5-min Rain = 0
KSE2 050826Z 19007KT 12/11 A2997 RMK A01 T01210109  RH  092%=      5-min Rain = 0
KSE2 050827Z 19007KT 12/11 A2996 RMK A01 T01200109  RH  093%=      5-min Rain = 0
KSE2 050828Z 19007KT 12/11 A2997 RMK A01 T01210110  RH  093%=      5-min Rain = 0
KSE2 050829Z 19007KT 12/11 A2997 RMK A01 T01210111  RH  093%=      5-min Rain = 0
KSE2 050830Z 18006KT 12/11 A2997 RMK A01 T01210111  RH  093%=      5-min Rain = 0
KSE2 050831Z 19006KT 12/11 A2997 RMK A01 T01210110  RH  093%=      5-min Rain = 0
KSE2 050832Z 19006KT 12/11 A2997 RMK A01 T01210110  RH  093%=      5-min Rain = 0
KSE2 050833Z 19006KT 12/11 A2997 RMK A01 T01200109  RH  093%=      5-min Rain = 0
KSE2 050834Z 18006KT 12/11 A2997 RMK A01 T01200109  RH  093%=      5-min Rain = 0
KSE2 050835Z 19006KT 12/11 A2997 RMK A01 T01200109  RH  093%=      5-min Rain = 0
KSE2 050836Z 19006KT 12/11 A2997 RMK A01 T01190108  RH  093%=      5-min Rain = 0
KSE2 050837Z 19006KT 12/11 A2997 RMK A01 T01190108  RH  093%=      5-min Rain = 0
KSE2 050838Z 19006KT 12/11 A2996 RMK A01 T01190108  RH  093%=      5-min Rain = 0
KSE2 050839Z 19006KT 12/11 A2996 RMK A01 T01180108  RH  094%=      5-min Rain = 0
KSE2 050840Z 19005KT 12/11 A2996 RMK A01 T01180109  RH  094%=      5-min Rain = 0
KSE2 050841Z 19006KT 12/11 A2996 RMK A01 T01180108  RH  094%=      5-min Rain = 0
KSE2 050842Z 20007KT 12/11 A2996 RMK A01 T01180109  RH  094%=      5-min Rain = 0
KSE2 050843Z 20006KT 12/11 A2996 RMK A01 T01180108  RH  094%=      5-min Rain = 0
KSE2 050844Z 20005KT 12/11 A2997 RMK A01 T01180109  RH  094%=      5-min Rain = 0
KSE2 050845Z 20006KT 12/11 A2997 RMK A01 T01180109  RH  094%=      5-min Rain = 0
KSE2 050846Z 20005KT 12/11 A2997 RMK A01 T01190109  RH  094%=      5-min Rain = 0
KSE2 050847Z 20006KT 12/11 A2997 RMK A01 T01190109  RH  094%=      5-min Rain = 0
KSE2 050848Z 20006KT 12/11 A2997 RMK A01 T01190110  RH  094%=      5-min Rain = 0
KSE2 050849Z 20006KT 12/11 A2997 RMK A01 T01190109  RH  094%=      5-min Rain = 0
KSE2 050850Z 20007KT 12/11 A2997 RMK A01 T01190109  RH  094%=      5-min Rain = 0
KSE2 050851Z 21006KT 12/11 A2997 RMK A01 T01190109  RH  094%=      5-min Rain = 0
KSE2 050852Z 20007KT 12/11 A2997 RMK A01 T01190110  RH  094%=      5-min Rain = 0
KSE2 050853Z 20007KT 12/11 A2997 RMK A01 T01190110  RH  094%=      5-min Rain = 0
KSE2 050854Z 20007KT 12/11 A2997 RMK A01 T01190110  RH  094%=      5-min Rain = 0
KSE2 050855Z 19007KT 12/11 A2997 RMK A01 T01190111  RH  094%=      5-min Rain = 0
KSE2 050856Z 20007KT 12/11 A2996 RMK A01 T01200111  RH  094%=      5-min Rain = 0
KSE2 050857Z 21008KT 12/11 A2996 RMK A01 T01200112  RH  094%=      5-min Rain = 0
KSE2 050858Z 20007KT 12/11 A2996 RMK A01 T01210112  RH  095%=      5-min Rain = 0
KSE2 050859Z 20007KT 12/11 A2996 RMK A01 T01210112  RH  094%=      5-min Rain = 0
KSE2 050900Z 20006KT 12/11 A2997 RMK A01 T01210112  RH  094%=      5-min Rain = 0
KSE2 050901Z 19006KT 12/11 A2996 RMK A01 T01220113  RH  095%=      5-min Rain = 0
KSE2 050902Z 20007KT 12/11 A2996 RMK A01 T01220114  RH  095%=      5-min Rain = 0
KSE2 050903Z 20008KT 12/11 A2996 RMK A01 T01220114  RH  095%=      5-min Rain = 0
KSE2 050904Z 20009KT 12/12 A2996 RMK A01 T01230115  RH  095%=      5-min Rain = 0
KSE2 050905Z 20009KT 12/12 A2996 RMK A01 T01230116  RH  095%=      5-min Rain = 0
KSE2 050906Z 20007KT 12/12 A2996 RMK A01 T01240116  RH  095%=      5-min Rain = 0
KSE2 050907Z 20008KT 12/12 A2996 RMK A01 T01240116  RH  095%=      5-min Rain = 0
KSE2 050908Z 20009KT 12/12 A2996 RMK A01 T01240116  RH  095%=      5-min Rain = 0
KSE2 050909Z 20007KT 12/12 A2996 RMK A01 T01240117  RH  095%=      5-min Rain = 0
KSE2 050910Z 20009KT 13/12 A2996 RMK A01 T01250117  RH  095%=      5-min Rain = 0
KSE2 050911Z 20009KT 13/12 A2996 RMK A01 T01250118  RH  095%=      5-min Rain = 0
KSE2 050912Z 20008KT 13/12 A2996 RMK A01 T01260119  RH  096%=      5-min Rain = 0
KSE2 050913Z 21008KT 13/12 A2996 RMK A01 T01250119  RH  096%=      5-min Rain = 0
KSE2 050914Z 21008KT 13/12 A2996 RMK A01 T01260119  RH  096%=      5-min Rain = 0
KSE2 050915Z 20008KT 13/12 A2996 RMK A01 T01260119  RH  096%=      5-min Rain = 0
KSE2 050916Z 20007KT 13/12 A2996 RMK A01 T01260119  RH  096%=      5-min Rain = 0
KSE2 050917Z 21007KT 13/12 A2996 RMK A01 T01260119  RH  096%=      5-min Rain = 0
KSE2 050918Z 21006KT 13/12 A2996 RMK A01 T01260119  RH  096%=      5-min Rain = 0
KSE2 050919Z 21006KT 13/12 A2996 RMK A01 T01260119  RH  096%=      5-min Rain = 0
KSE2 050920Z 21007KT 13/12 A2995 RMK A01 T01260119  RH  096%=      5-min Rain = 0
KSE2 050921Z 21008KT 13/12 A2995 RMK A01 T01260119  RH  096%=      5-min Rain = 0
KSE2 050922Z 21008KT 13/12 A2996 RMK A01 T01260120  RH  096%=      5-min Rain = 0
KSE2 050923Z 21007KT 13/12 A2996 RMK A01 T01270120  RH  096%=      5-min Rain = 0
KSE2 050924Z 22008KT 13/12 A2996 RMK A01 T01270121  RH  096%=      5-min Rain = 0
KSE2 050925Z 22007KT 13/12 A2996 RMK A01 T01270121  RH  096%=      5-min Rain = 0
KSE2 050926Z 22007KT 13/12 A2996 RMK A01 T01270121  RH  096%=      5-min Rain = 0
KSE2 050927Z 22007KT 13/12 A2996 RMK A01 T01270121  RH  096%=      5-min Rain = 0
KSE2 050928Z 22009KT 13/12 A2996 RMK A01 T01280122  RH  096%=      5-min Rain = 0
KSE2 050929Z 21006KT 13/12 A2996 RMK A01 T01280122  RH  096%=      5-min Rain = 0
KSE2 050930Z 22007KT 13/12 A2996 RMK A01 T01280122  RH  096%=      5-min Rain = 0
KSE2 050931Z 23009KT 13/12 A2996 RMK A01 T01280122  RH  096%=      5-min Rain = 0
KSE2 050932Z 23006KT 13/12 A2996 RMK A01 T01280123  RH  096%=      5-min Rain = 0
KSE2 050933Z 22009KT 13/12 A2996 RMK A01 T01280123  RH  096%=      5-min Rain = 0
KSE2 050934Z 22009KT 13/12 A2996 RMK A01 T01280123  RH  096%=      5-min Rain = 0
KSE2 050935Z 23007KT 13/12 A2996 RMK A01 T01290123  RH  096%=      5-min Rain = 0
KSE2 050936Z 23007KT 13/12 A2996 RMK A01 T01290123  RH  096%=      5-min Rain = 0
KSE2 050937Z 22008KT 13/12 A2996 RMK A01 T01280123  RH  096%=      5-min Rain = 0
KSE2 050938Z 22009KT 13/12 A2996 RMK A01 T01280123  RH  096%=      5-min Rain = 0
KSE2 050939Z 22009KT 13/12 A2996 RMK A01 T01280123  RH  096%=      5-min Rain = 0
KSE2 050940Z 22010KT 13/12 A2996 RMK A01 T01280122  RH  096%=      5-min Rain = 0
KSE2 050941Z 23008KT 13/12 A2996 RMK A01 T01280122  RH  096%=      5-min Rain = 0
KSE2 050942Z 23007KT 13/12 A2996 RMK A01 T01280123  RH  096%=      5-min Rain = 0
KSE2 050943Z 22009KT 13/12 A2996 RMK A01 T01280122  RH  096%=      5-min Rain = 0
KSE2 050944Z 23009KT 13/12 A2996 RMK A01 T01280122  RH  096%=      5-min Rain = 0
KSE2 050945Z 23008KT 13/12 A2996 RMK A01 T01280122  RH  096%=      5-min Rain = 0
KSE2 050946Z 23007KT 13/12 A2996 RMK A01 T01280122  RH  097%=      5-min Rain = 0
KSE2 050947Z 24009KT 13/12 A2996 RMK A01 T01280123  RH  097%=      5-min Rain = 0
KSE2 050948Z 23009KT 13/12 A2996 RMK A01 T01280123  RH  097%=      5-min Rain = 0
KSE2 050949Z 24007KT 13/12 A2996 RMK A01 T01280123  RH  097%=      5-min Rain = 0
KSE2 050950Z 23009KT 13/12 A2996 RMK A01 T01280123  RH  097%=      5-min Rain = 0
KSE2 050951Z 24008KT 13/12 A2996 RMK A01 T01280123  RH  097%=      5-min Rain = 0
KSE2 050952Z 24006KT 13/12 A2996 RMK A01 T01280123  RH  097%=      5-min Rain = 0
KSE2 050953Z 23005KT 13/12 A2996 RMK A01 T01280123  RH  097%=      5-min Rain = 0
KSE2 050954Z 24007G12KT 13/12 A2996 RMK A01 T01280123  RH  097%=      5-min Rain = 0
KSE2 050955Z 24008KT 13/12 A2996 RMK A01 T01280123  RH  097%=      5-min Rain = 0
KSE2 050956Z 23007KT 13/12 A2996 RMK A01 T01280123  RH  097%=      5-min Rain = 0
KSE2 050957Z 24007KT 13/12 A2996 RMK A01 T01280123  RH  097%=      5-min Rain = 0
KSE2 050958Z 25007KT 13/12 A2996 RMK A01 T01280123  RH  097%=      5-min Rain = 0
KSE2 050959Z 24007KT 13/12 A2996 RMK A01 T01280123  RH  097%=      5-min Rain = 0
KSE2 051000Z 25008KT 13/12 A2996 RMK A01 T01280123  RH  097%=      5-min Rain = 0
KSE2 051001Z 24007KT 13/12 A2996 RMK A01 T01280123  RH  097%=      5-min Rain = 0
KSE2 051002Z 25007KT 13/12 A2996 RMK A01 T01280123  RH  097%=      5-min Rain = 0
KSE2 051003Z 25006KT 13/12 A2996 RMK A01 T01280123  RH  097%=      5-min Rain = 0
KSE2 051004Z 25007KT 13/12 A2996 RMK A01 T01280123  RH  097%=      5-min Rain = 0
KSE2 051005Z 24008KT 13/12 A2996 RMK A01 T01280123  RH  097%=      5-min Rain = 0
KSE2 051006Z 25007KT 13/12 A2996 RMK A01 T01280123  RH  097%=      5-min Rain = 0
KSE2 051007Z 24006KT 13/12 A2996 RMK A01 T01280123  RH  097%=      5-min Rain = 0
KSE2 051008Z 25007KT 13/12 A2996 RMK A01 T01270123  RH  097%=      5-min Rain = 0
KSE2 051009Z 25008KT 13/12 A2996 RMK A01 T01270123  RH  097%=      5-min Rain = 0
KSE2 051010Z 26006KT 13/12 A2996 RMK A01 T01270123  RH  097%=      5-min Rain = 0
KSE2 051011Z 26007KT 13/12 A2996 RMK A01 T01260122  RH  097%=      5-min Rain = 0
KSE2 051012Z 26007KT 13/12 A2996 RMK A01 T01260122  RH  097%=      5-min Rain = 0
KSE2 051013Z 26008KT 13/12 A2996 RMK A01 T01260122  RH  097%=      5-min Rain = 0
KSE2 051014Z 25008KT 13/12 A2996 RMK A01 T01260122  RH  097%=      5-min Rain = 0
KSE2 051015Z 25007KT 13/12 A2997 RMK A01 T01250121  RH  097%=      5-min Rain = 0
KSE2 051016Z 26008KT 13/12 A2997 RMK A01 T01250121  RH  097%=      5-min Rain = 0
KSE2 051017Z 26008KT 13/12 A2997 RMK A01 T01260121  RH  097%=      5-min Rain = 0
KSE2 051018Z 26009KT 13/12 A2997 RMK A01 T01260120  RH  097%=      5-min Rain = 0
KSE2 051019Z 26007KT 13/12 A2997 RMK A01 T01250120  RH  096%=      5-min Rain = 0
KSE2 051020Z 26009KT 13/12 A2997 RMK A01 T01250119  RH  096%=      5-min Rain = 0
KSE2 051021Z 26009KT 13/12 A2997 RMK A01 T01250119  RH  096%=      5-min Rain = 0
KSE2 051022Z 27008KT 13/12 A2997 RMK A01 T01250119  RH  096%=      5-min Rain = 0
KSE2 051023Z 27007KT 13/12 A2997 RMK A01 T01250119  RH  096%=      5-min Rain = 0
KSE2 051024Z 27007KT 13/12 A2997 RMK A01 T01250119  RH  096%=      5-min Rain = 0
KSE2 051025Z 27007KT 12/12 A2997 RMK A01 T01240118  RH  096%=      5-min Rain = 0
KSE2 051026Z 27006KT 13/12 A2997 RMK A01 T01250118  RH  096%=      5-min Rain = 0
KSE2 051027Z 27007KT 12/12 A2997 RMK A01 T01240118  RH  096%=      5-min Rain = 0
KSE2 051028Z 27008KT 12/12 A2997 RMK A01 T01240118  RH  096%=      5-min Rain = 0
KSE2 051029Z 28007KT 12/12 A2997 RMK A01 T01240118  RH  096%=      5-min Rain = 0
KSE2 051030Z 27007KT 12/12 A2997 RMK A01 T01240119  RH  097%=      5-min Rain = 0
KSE2 051031Z 27008KT 12/12 A2997 RMK A01 T01230119  RH  097%=      5-min Rain = 0
KSE2 051032Z 27008KT 12/12 A2997 RMK A01 T01230118  RH  097%=      5-min Rain = 0
KSE2 051033Z 27008KT 12/12 A2997 RMK A01 T01230119  RH  097%=      5-min Rain = 0
KSE2 051034Z 28008KT 12/12 A2997 RMK A01 T01230119  RH  097%=      5-min Rain = 0
KSE2 051035Z 27006KT 12/12 A2997 RMK A01 T01230119  RH  097%=      5-min Rain = 0
KSE2 051036Z 28008KT 12/12 A2997 RMK A01 T01220118  RH  097%=      5-min Rain = 0
KSE2 051037Z 28007KT 12/12 A2998 RMK A01 T01220118  RH  097%=      5-min Rain = 0
KSE2 051038Z 28008KT 12/12 A2998 RMK A01 T01220118  RH  097%=      5-min Rain = 0
KSE2 051039Z 29008KT 12/12 A2998 RMK A01 T01220118  RH  097%=      5-min Rain = 0
KSE2 051040Z 28007KT 12/12 A2998 RMK A01 T01220118  RH  097%=      5-min Rain = 0
KSE2 051041Z 29008KT 12/12 A2998 RMK A01 T01220118  RH  097%=      5-min Rain = 0
KSE2 051042Z 29007KT 12/12 A2998 RMK A01 T01220117  RH  097%=      5-min Rain = 0
KSE2 051043Z 28008KT 12/12 A2998 RMK A01 T01210117  RH  097%=      5-min Rain = 0
KSE2 051044Z 29007KT 12/12 A2998 RMK A01 T01200116  RH  097%=      5-min Rain = 0
KSE2 051045Z 29007KT 12/12 A2998 RMK A01 T01200116  RH  097%=      5-min Rain = 0
KSE2 051046Z 29008KT 12/12 A2998 RMK A01 T01190115  RH  097%=      5-min Rain = 0
KSE2 051047Z 29008KT 12/12 A2998 RMK A01 T01190115  RH  097%=      5-min Rain = 0
KSE2 051048Z 28007KT 12/11 A2998 RMK A01 T01180114  RH  097%=      5-min Rain = 0
KSE2 051049Z 29006KT 12/11 A2998 RMK A01 T01180114  RH  097%=      5-min Rain = 0
KSE2 051050Z 29008KT 12/11 A2998 RMK A01 T01180114  RH  097%=      5-min Rain = 0
KSE2 051051Z 28009KT 12/11 A2998 RMK A01 T01170113  RH  097%=      5-min Rain = 0
KSE2 051052Z 28009KT 12/11 A2998 RMK A01 T01170114  RH  097%=      5-min Rain = 0
KSE2 051053Z 28008KT 12/11 A2998 RMK A01 T01170113  RH  097%=      5-min Rain = 0
KSE2 051054Z 29007KT 12/11 A2998 RMK A01 T01170113  RH  097%=      5-min Rain = 0
KSE2 051055Z 28007KT 12/11 A2998 RMK A01 T01160113  RH  097%=      5-min Rain = 0
KSE2 051056Z 29008KT 12/11 A2998 RMK A01 T01160112  RH  097%=      5-min Rain = 0
KSE2 051057Z 28007KT 12/11 A2998 RMK A01 T01160112  RH  098%=      5-min Rain = 0
KSE2 051058Z 28007KT 12/11 A2998 RMK A01 T01160112  RH  098%=      5-min Rain = 0
KSE2 051059Z 27007KT 12/11 A2998 RMK A01 T01150112  RH  098%=      5-min Rain = 0
KSE2 051100Z 27007KT 12/11 A2998 RMK A01 T01160112  RH  098%=      5-min Rain = 0
KSE2 051101Z 27007KT 12/11 A2998 RMK A01 T01150111  RH  098%=      5-min Rain = 0
KSE2 051102Z 27008KT 12/11 A2998 RMK A01 T01150111  RH  098%=      5-min Rain = 0
KSE2 051103Z 27008KT 12/11 A2998 RMK A01 T01150111  RH  098%=      5-min Rain = 0
KSE2 051104Z 28008KT 12/11 A2998 RMK A01 T01150111  RH  098%=      5-min Rain = 0
KSE2 051105Z 27007KT 12/11 A2998 RMK A01 T01150111  RH  098%=      5-min Rain = 0
KSE2 051106Z 28007KT 12/11 A2998 RMK A01 T01150111  RH  098%=      5-min Rain = 0
KSE2 051107Z 27008KT 12/11 A2998 RMK A01 T01150111  RH  097%=      5-min Rain = 0
KSE2 051108Z 27007KT 12/11 A2999 RMK A01 T01150111  RH  097%=      5-min Rain = 0
KSE2 051109Z 27008KT 12/11 A2999 RMK A01 T01150111  RH  097%=      5-min Rain = 0
KSE2 051110Z 27006KT 12/11 A2999 RMK A01 T01150110  RH  097%=      5-min Rain = 0
KSE2 051111Z 27007KT 12/11 A2999 RMK A01 T01150110  RH  097%=      5-min Rain = 0
KSE2 051112Z 27007KT 12/11 A2999 RMK A01 T01150110  RH  097%=      5-min Rain = 0
KSE2 051113Z 28007KT 12/11 A2999 RMK A01 T01150110  RH  097%=      5-min Rain = 0
KSE2 051114Z 27008G13KT 11/11 A2999 RMK A01 T01140109  RH  097%=      5-min Rain = 0
KSE2 051115Z 28008KT 11/11 A2999 RMK A01 T01140109  RH  097%=      5-min Rain = 0
KSE2 051116Z 28008KT 11/11 A2999 RMK A01 T01140109  RH  096%=      5-min Rain = 0
KSE2 051117Z 28009KT 11/11 A2999 RMK A01 T01140109  RH  096%=      5-min Rain = 0
KSE2 051118Z 27009KT 11/11 A2999 RMK A01 T01140108  RH  096%=      5-min Rain = 0
KSE2 051119Z 28008KT 11/11 A2999 RMK A01 T01140108  RH  096%=      5-min Rain = 0
KSE2 051120Z 28008KT 11/11 A2999 RMK A01 T01140108  RH  096%=      5-min Rain = 0
KSE2 051121Z 28007KT 11/11 A2999 RMK A01 T01140107  RH  096%=      5-min Rain = 0
KSE2 051122Z 28008KT 11/11 A2999 RMK A01 T01140107  RH  095%=      5-min Rain = 0
KSE2 051123Z 27009KT 11/11 A2999 RMK A01 T01140106  RH  095%=      5-min Rain = 0
KSE2 051124Z 27008KT 11/11 A2999 RMK A01 T01140106  RH  095%=      5-min Rain = 0
KSE2 051125Z 28008KT 11/11 A2999 RMK A01 T01140105  RH  094%=      5-min Rain = 0
KSE2 051126Z 27009KT 11/10 A2999 RMK A01 T01140104  RH  094%=      5-min Rain = 0
KSE2 051127Z 28009KT 11/10 A2999 RMK A01 T01140104  RH  094%=      5-min Rain = 0
KSE2 051128Z 27008KT 11/10 A2999 RMK A01 T01140103  RH  093%=      5-min Rain = 0
KSE2 051129Z 28008KT 11/10 A2999 RMK A01 T01140102  RH  093%=      5-min Rain = 0
KSE2 051130Z 28009KT 11/10 A2999 RMK A01 T01140102  RH  092%=      5-min Rain = 0
KSE2 051131Z 27008KT 11/10 A2999 RMK A01 T01140101  RH  092%=      5-min Rain = 0
KSE2 051132Z 28007KT 11/10 A2999 RMK A01 T01140100  RH  091%=      5-min Rain = 0
KSE2 051133Z 28008KT 11/10 A2999 RMK A01 T01140100  RH  091%=      5-min Rain = 0
KSE2 051134Z 28006KT 11/10 A2999 RMK A01 T01140100  RH  091%=      5-min Rain = 0
KSE2 051135Z 28007KT 11/10 A2999 RMK A01 T01140099  RH  091%=      5-min Rain = 0
KSE2 051136Z 28007KT 11/10 A2999 RMK A01 T01140099  RH  091%=      5-min Rain = 0
KSE2 051137Z 27008KT 11/10 A2999 RMK A01 T01140099  RH  091%=      5-min Rain = 0
KSE2 051138Z 28007KT 11/10 A2999 RMK A01 T01130098  RH  090%=      5-min Rain = 0
KSE2 051139Z 27008KT 11/10 A2999 RMK A01 T01130098  RH  090%=      5-min Rain = 0
KSE2 051140Z 27009KT 11/10 A2999 RMK A01 T01130097  RH  090%=      5-min Rain = 0
KSE2 051141Z 28007KT 11/10 A2999 RMK A01 T01130098  RH  090%=      5-min Rain = 0
KSE2 051142Z 28008KT 11/10 A2999 RMK A01 T01130097  RH  090%=      5-min Rain = 0
KSE2 051143Z 28009KT 11/10 A2999 RMK A01 T01130097  RH  090%=      5-min Rain = 0
KSE2 051144Z 28008KT 11/10 A2999 RMK A01 T01130097  RH  090%=      5-min Rain = 0
KSE2 051145Z 28008KT 11/10 A2999 RMK A01 T01130096  RH  090%=      5-min Rain = 0
KSE2 051146Z 28008KT 11/10 A2999 RMK A01 T01130096  RH  089%=      5-min Rain = 0
KSE2 051147Z 28007KT 11/10 A2999 RMK A01 T01130096  RH  089%=      5-min Rain = 0
KSE2 051148Z 28008KT 11/10 A2999 RMK A01 T01130095  RH  089%=      5-min Rain = 0
KSE2 051149Z 28007KT 11/10 A2999 RMK A01 T01120095  RH  089%=      5-min Rain = 0
KSE2 051150Z 28008KT 11/09 A2999 RMK A01 T01120094  RH  089%=      5-min Rain = 0
KSE2 051151Z 28007KT 11/09 A2999 RMK A01 T01120094  RH  089%=      5-min Rain = 0
KSE2 051152Z 28007KT 11/09 A2999 RMK A01 T01120094  RH  089%=      5-min Rain = 0
KSE2 051153Z 28008KT 11/09 A2999 RMK A01 T01110093  RH  089%=      5-min Rain = 0
KSE2 051154Z 28008KT 11/09 A2999 RMK A01 T01110093  RH  088%=      5-min Rain = 0
KSE2 051155Z 28007KT 11/09 A2999 RMK A01 T01110092  RH  088%=      5-min Rain = 0
KSE2 051156Z 28008KT 11/09 A2999 RMK A01 T01110092  RH  088%=      5-min Rain = 0
KSE2 051157Z 28008KT 11/09 A2999 RMK A01 T01110092  RH  088%=      5-min Rain = 0
KSE2 051158Z 28008KT 11/09 A2999 RMK A01 T01120092  RH  088%=      5-min Rain = 0
KSE2 051159Z 28007KT 11/09 A2999 RMK A01 T01110090  RH  087%=      5-min Rain = 0
KSE2 051200Z 28007KT 11/09 A2999 RMK A01 T01110090  RH  087%=      5-min Rain = 0
KSE2 051201Z 28007KT 11/09 A2999 RMK A01 T01110089  RH  086%=      5-min Rain = 0
KSE2 051202Z 28007KT 11/09 A2999 RMK A01 T01110088  RH  086%=      5-min Rain = 0
KSE2 051203Z 28007KT 11/09 A2999 RMK A01 T01110087  RH  085%=      5-min Rain = 0
KSE2 051204Z 28007KT 11/09 A2999 RMK A01 T01100086  RH  085%=      5-min Rain = 0
KSE2 051205Z 28008KT 11/08 A2999 RMK A01 T01110084  RH  084%=      5-min Rain = 0
KSE2 051206Z 28007KT 11/08 A2999 RMK A01 T01110083  RH  083%=      5-min Rain = 0
KSE2 051207Z 28007KT 11/08 A2999 RMK A01 T01110081  RH  082%=      5-min Rain = 0
KSE2 051208Z 28008KT 11/08 A2999 RMK A01 T01120079  RH  080%=      5-min Rain = 0
KSE2 051209Z 28007KT 11/08 A2999 RMK A01 T01130079  RH  079%=      5-min Rain = 0
KSE2 051210Z 28007KT 11/08 A2999 RMK A01 T01130079  RH  079%=      5-min Rain = 0
KSE2 051211Z 28008KT 11/08 A2999 RMK A01 T01130077  RH  079%=      5-min Rain = 0
KSE2 051212Z 29007KT 11/08 A30 RMK A01 T01130076  RH  078%=      5-min Rain = 0
KSE2 051213Z 29006KT 11/08 A30 RMK A01 T01130076  RH  078%=      5-min Rain = 0
KSE2 051214Z 29007KT 11/08 A30 RMK A01 T01120075  RH  078%=      5-min Rain = 0
KSE2 051215Z 29007KT 11/08 A30 RMK A01 T01120075  RH  078%=      5-min Rain = 0
KSE2 051216Z 28007KT 11/07 A2999 RMK A01 T01120074  RH  078%=      5-min Rain = 0
KSE2 051217Z 29006KT 11/07 A2999 RMK A01 T01110074  RH  078%=      5-min Rain = 0
KSE2 051218Z 28006KT 11/07 A2999 RMK A01 T01110074  RH  078%=      5-min Rain = 0
KSE2 051219Z 28006KT 11/07 A2999 RMK A01 T01110073  RH  078%=      5-min Rain = 0
KSE2 051220Z 28007KT 11/07 A2999 RMK A01 T01110073  RH  077%=      5-min Rain = 0
KSE2 051221Z 28006KT 11/07 A2999 RMK A01 T01110072  RH  077%=      5-min Rain = 0
KSE2 051222Z 28006KT 11/07 A2999 RMK A01 T01110072  RH  077%=      5-min Rain = 0
KSE2 051223Z 28007KT 11/07 A2999 RMK A01 T01110071  RH  077%=      5-min Rain = 0
KSE2 051224Z 29006KT 11/07 A2999 RMK A01 T01110071  RH  077%=      5-min Rain = 0
KSE2 051225Z 29006KT 11/07 A2999 RMK A01 T01100071  RH  077%=      5-min Rain = 0
KSE2 051226Z 28006KT 11/07 A2999 RMK A01 T01100071  RH  077%=      5-min Rain = 0
KSE2 051227Z 29006KT 11/07 A2999 RMK A01 T01100070  RH  076%=      5-min Rain = 0
KSE2 051228Z 28007KT 11/07 A2999 RMK A01 T01090070  RH  077%=      5-min Rain = 0
KSE2 051229Z 29007KT 11/07 A2999 RMK A01 T01090069  RH  076%=      5-min Rain = 0
KSE2 051230Z 28006KT 11/07 A30 RMK A01 T01090069  RH  076%=      5-min Rain = 0
KSE2 051231Z 29007KT 11/07 A30 RMK A01 T01090069  RH  076%=      5-min Rain = 0
KSE2 051232Z 29007KT 11/07 A30 RMK A01 T01090069  RH  076%=      5-min Rain = 0
KSE2 051233Z 29008KT 11/07 A30 RMK A01 T01080069  RH  077%=      5-min Rain = 0
KSE2 051234Z 29008KT 11/07 A30 RMK A01 T01080068  RH  076%=      5-min Rain = 0
KSE2 051235Z 29007KT 11/07 A30 RMK A01 T01080067  RH  076%=      5-min Rain = 0
KSE2 051236Z 29008KT 11/07 A2999 RMK A01 T01080066  RH  075%=      5-min Rain = 0
KSE2 051237Z 29008KT 11/07 A2999 RMK A01 T01090065  RH  075%=      5-min Rain = 0
KSE2 051238Z 29007KT 11/07 A2999 RMK A01 T01090065  RH  074%=      5-min Rain = 0
KSE2 051239Z 29007KT 11/06 A2999 RMK A01 T01090063  RH  073%=      5-min Rain = 0
KSE2 051240Z 29007KT 11/06 A2999 RMK A01 T01090062  RH  073%=      5-min Rain = 0
KSE2 051241Z 29008KT 11/06 A2999 RMK A01 T01080062  RH  073%=      5-min Rain = 0
KSE2 051242Z 29008KT 11/06 A2999 RMK A01 T01090061  RH  072%=      5-min Rain = 0
KSE2 051243Z 29007KT 11/06 A2999 RMK A01 T01090060  RH  072%=      5-min Rain = 0
KSE2 051244Z 29007KT 11/06 A30 RMK A01 T01090059  RH  071%=      5-min Rain = 0
KSE2 051245Z 29008KT 11/06 A30 RMK A01 T01090058  RH  071%=      5-min Rain = 0
KSE2 051246Z 29008KT 11/06 A30 RMK A01 T01090057  RH  070%=      5-min Rain = 0
KSE2 051247Z 29007KT 11/06 A30 RMK A01 T01090056  RH  070%=      5-min Rain = 0
KSE2 051248Z 29007KT 11/06 A30 RMK A01 T01090056  RH  070%=      5-min Rain = 0
KSE2 051249Z 28007KT 11/06 A30 RMK A01 T01090055  RH  069%=      5-min Rain = 0
KSE2 051250Z 29007KT 11/05 A2999 RMK A01 T01090054  RH  069%=      5-min Rain = 0
KSE2 051251Z 28007KT 11/05 A2999 RMK A01 T01090054  RH  069%=      5-min Rain = 0
KSE2 051252Z 29007KT 11/05 A2999 RMK A01 T01090052  RH  068%=      5-min Rain = 0
KSE2 051253Z 29007KT 11/05 A2999 RMK A01 T01090052  RH  068%=      5-min Rain = 0
KSE2 051254Z 29007KT 11/05 A2999 RMK A01 T01090051  RH  067%=      5-min Rain = 0
KSE2 051255Z 28007KT 11/05 A30 RMK A01 T01090050  RH  067%=      5-min Rain = 0
KSE2 051256Z 28007KT 11/05 A30 RMK A01 T01090050  RH  067%=      5-min Rain = 0
KSE2 051257Z 29007KT 11/05 A30 RMK A01 T01090051  RH  067%=      5-min Rain = 0
KSE2 051258Z 28006KT 11/05 A30 RMK A01 T01090051  RH  068%=      5-min Rain = 0
KSE2 051259Z 28007KT 11/05 A30 RMK A01 T01080052  RH  068%=      5-min Rain = 0
KSE2 051300Z 28007KT 11/05 A30 RMK A01 T01080052  RH  068%=      5-min Rain = 0
KSE2 051301Z 29007KT 11/05 A30 RMK A01 T01070051  RH  068%=      5-min Rain = 0
KSE2 051302Z 29007KT 11/05 A30 RMK A01 T01070051  RH  068%=      5-min Rain = 0
KSE2 051303Z 29007KT 11/05 A30 RMK A01 T01070049  RH  068%=      5-min Rain = 0
KSE2 051304Z 29007KT 11/05 A30 RMK A01 T01060048  RH  067%=      5-min Rain = 0
KSE2 051305Z 29007KT 11/05 A30 RMK A01 T01060047  RH  067%=      5-min Rain = 0
KSE2 051306Z 29008KT 11/05 A30 RMK A01 T01070045  RH  065%=      5-min Rain = 0
KSE2 051307Z 30008KT 11/04 A30 RMK A01 T01080043  RH  064%=      5-min Rain = 0
KSE2 051308Z 30008KT 11/04 A30 RMK A01 T01090039  RH  062%=      5-min Rain = 0
KSE2 051309Z 30009KT 11/04 A30 RMK A01 T01100038  RH  061%=      5-min Rain = 0
KSE2 051310Z 30008KT 11/04 A30 RMK A01 T01100036  RH  060%=      5-min Rain = 0
KSE2 051311Z 30007KT 11/03 A30 RMK A01 T01120034  RH  059%=      5-min Rain = 0
KSE2 051312Z 30008KT 11/04 A30 RMK A01 T01120035  RH  059%=      5-min Rain = 0
KSE2 051313Z 30009KT 11/03 A30 RMK A01 T01120032  RH  058%=      5-min Rain = 0
KSE2 051314Z 30008KT 11/03 A30 RMK A01 T01130032  RH  058%=      5-min Rain = 0
KSE2 051315Z 30007KT 11/03 A30 RMK A01 T01130032  RH  058%=      5-min Rain = 0
KSE2 051316Z 30007KT 11/03 A3001 RMK A01 T01130032  RH  057%=      5-min Rain = 0
KSE2 051317Z 30007KT 11/03 A3001 RMK A01 T01130032  RH  057%=      5-min Rain = 0
KSE2 051318Z 30008KT 11/03 A3001 RMK A01 T01130032  RH  057%=      5-min Rain = 0
KSE2 051319Z 30008KT 11/03 A3001 RMK A01 T01120031  RH  057%=      5-min Rain = 0
KSE2 051320Z 29008KT 11/03 A3001 RMK A01 T01120031  RH  057%=      5-min Rain = 0
KSE2 051321Z 30007KT 11/03 A3001 RMK A01 T01120030  RH  057%=      5-min Rain = 0
KSE2 051322Z 30007KT 11/03 A3001 RMK A01 T01130030  RH  057%=      5-min Rain = 0
KSE2 051323Z 30007KT 11/03 A3001 RMK A01 T01130029  RH  056%=      5-min Rain = 0
KSE2 051324Z 30008KT 11/03 A3001 RMK A01 T01130028  RH  056%=      5-min Rain = 0
KSE2 051325Z 30007KT 11/03 A3001 RMK A01 T01130027  RH  055%=      5-min Rain = 0
KSE2 051326Z 29008KT 11/03 A3001 RMK A01 T01140026  RH  055%=      5-min Rain = 0
KSE2 051327Z 30007KT 11/03 A3001 RMK A01 T01130026  RH  055%=      5-min Rain = 0
KSE2 051328Z 30009KT 11/03 A3001 RMK A01 T01140025  RH  055%=      5-min Rain = 0
KSE2 051329Z 30008KT 11/03 A3001 RMK A01 T01140026  RH  054%=      5-min Rain = 0
KSE2 051330Z 30007G12KT 11/03 A3002 RMK A01 T01140025  RH  054%=      5-min Rain = 0
KSE2 051331Z 30007KT 12/03 A3002 RMK A01 T01150025  RH  054%=      5-min Rain = 0
KSE2 051332Z 30007KT 12/03 A3002 RMK A01 T01150025  RH  054%=      5-min Rain = 0
KSE2 051333Z 30008KT 12/03 A3002 RMK A01 T01150025  RH  054%=      5-min Rain = 0
KSE2 051334Z 30007KT 12/02 A3002 RMK A01 T01150024  RH  053%=      5-min Rain = 0
KSE2 051335Z 30007KT 12/02 A3002 RMK A01 T01160023  RH  053%=      5-min Rain = 0
KSE2 051336Z 29007G12KT 12/02 A3002 RMK A01 T01160024  RH  053%=      5-min Rain = 0
KSE2 051337Z 29007KT 12/02 A3002 RMK A01 T01160024  RH  053%=      5-min Rain = 0
KSE2 051338Z 28008KT 12/02 A3002 RMK A01 T01160022  RH  052%=      5-min Rain = 0
KSE2 051339Z 29008KT 12/02 A3002 RMK A01 T01170021  RH  052%=      5-min Rain = 0
KSE2 051340Z 29008KT 12/02 A3002 RMK A01 T01170021  RH  052%=      5-min Rain = 0
KSE2 051341Z 30008KT 12/02 A3002 RMK A01 T01180021  RH  051%=      5-min Rain = 0
KSE2 051342Z 29008KT 12/02 A3002 RMK A01 T01180021  RH  051%=      5-min Rain = 0
KSE2 051343Z 30008KT 12/02 A3002 RMK A01 T01180022  RH  051%=      5-min Rain = 0
KSE2 051344Z 30008KT 12/02 A3002 RMK A01 T01180020  RH  051%=      5-min Rain = 0
KSE2 051345Z 30007KT 12/02 A3002 RMK A01 T01180021  RH  051%=      5-min Rain = 0
KSE2 051346Z 31007KT 12/02 A3002 RMK A01 T01180021  RH  051%=      5-min Rain = 0
KSE2 051347Z 30008G14KT 12/02 A3002 RMK A01 T01180019  RH  051%=      5-min Rain = 0
KSE2 051348Z 30009KT 12/02 A3002 RMK A01 T01190020  RH  051%=      5-min Rain = 0
KSE2 051349Z 30009KT 12/02 A3002 RMK A01 T01180020  RH  051%=      5-min Rain = 0
KSE2 051350Z 30007KT 12/02 A3002 RMK A01 T01180020  RH  051%=      5-min Rain = 0
KSE2 051351Z 30009KT 12/02 A3002 RMK A01 T01170019  RH  051%=      5-min Rain = 0
KSE2 051352Z 30008G14KT 12/02 A3002 RMK A01 T01170016  RH  050%=      5-min Rain = 0
KSE2 051353Z 31008KT 12/02 A3002 RMK A01 T01160016  RH  050%=      5-min Rain = 0
KSE2 051354Z 30006KT 12/02 A3002 RMK A01 T01160017  RH  050%=      5-min Rain = 0
KSE2 051355Z 30011KT 12/02 A3002 RMK A01 T01150015  RH  050%=      5-min Rain = 0
KSE2 051356Z 30009KT 12/02 A3002 RMK A01 T01150015  RH  050%=      5-min Rain = 0
KSE2 051357Z 30008G13KT 12/02 A3002 RMK A01 T01150015  RH  050%=      5-min Rain = 0
KSE2 051358Z 30007KT 11/02 A3003 RMK A01 T01140016  RH  051%=      5-min Rain = 0
KSE2 051359Z 30008KT 11/02 A3002 RMK A01 T01140017  RH  051%=      5-min Rain = 0
KSE2 051400Z 30007KT 11/02 A3002 RMK A01 T01140017  RH  051%=      5-min Rain = 0
KSE2 051401Z 31007KT 12/02 A3002 RMK A01 T01150017  RH  051%=      5-min Rain = 0
KSE2 051402Z 30007KT 12/02 A3003 RMK A01 T01150018  RH  051%=      5-min Rain = 0
KSE2 051403Z 30008KT 12/02 A3003 RMK A01 T01150017  RH  051%=      5-min Rain = 0
KSE2 051404Z 30007KT 12/02 A3003 RMK A01 T01150016  RH  051%=      5-min Rain = 0
KSE2 051405Z 31008KT 12/02 A3003 RMK A01 T01150018  RH  051%=      5-min Rain = 0
KSE2 051406Z 31009KT 11/02 A3003 RMK A01 T01140017  RH  051%=      5-min Rain = 0
KSE2 051407Z 31007KT 11/02 A3003 RMK A01 T01140016  RH  051%=      5-min Rain = 0
KSE2 051408Z 31011KT 11/02 A3003 RMK A01 T01130015  RH  051%=      5-min Rain = 0
KSE2 051409Z 31010G15KT 11/01 A3003 RMK A01 T01140012  RH  049%=      5-min Rain = 0
KSE2 051410Z 31011KT 12/01 A3003 RMK A01 T01160013  RH  049%=      5-min Rain = 0
KSE2 051411Z 31010KT 12/01 A3003 RMK A01 T01170014  RH  049%=      5-min Rain = 0
KSE2 051412Z 31012KT 12/01 A3003 RMK A01 T01180013  RH  049%=      5-min Rain = 0
KSE2 051413Z 31009KT 12/01 A3003 RMK A01 T01190014  RH  049%=      5-min Rain = 0
KSE2 051414Z 31009KT 12/02 A3003 RMK A01 T01190015  RH  049%=      5-min Rain = 0
KSE2 051415Z 31007KT 12/01 A3003 RMK A01 T01200014  RH  048%=      5-min Rain = 0
KSE2 051416Z 32008KT 12/02 A3003 RMK A01 T01210015  RH  048%=      5-min Rain = 0
KSE2 051417Z 31009KT 12/01 A3003 RMK A01 T01210014  RH  048%=      5-min Rain = 0
KSE2 051418Z 32011KT 12/01 A3003 RMK A01 T01220012  RH  047%=      5-min Rain = 0
KSE2 051419Z 31010KT 12/01 A3003 RMK A01 T01210010  RH  046%=      5-min Rain = 0
KSE2 051420Z 31010KT 12/01 A3003 RMK A01 T01210010  RH  046%=      5-min Rain = 0
KSE2 051421Z 32006G11KT 12/01 A3003 RMK A01 T01220011  RH  047%=      5-min Rain = 0
KSE2 051422Z 31011KT 12/01 A3003 RMK A01 T01240013  RH  047%=      5-min Rain = 0
KSE2 051423Z 32011KT 12/01 A3003 RMK A01 T01240009  RH  045%=      5-min Rain = 0
KSE2 051424Z 31012G18KT 12/01 A3003 RMK A01 T01240008  RH  045%=      5-min Rain = 0
KSE2 051425Z 31010KT 13/01 A3003 RMK A01 T01250008  RH  045%=      5-min Rain = 0
KSE2 051426Z 32009KT 13/01 A3003 RMK A01 T01260010  RH  045%=      5-min Rain = 0
KSE2 051427Z 31009KT 13/01 A3004 RMK A01 T01270011  RH  045%=      5-min Rain = 0
KSE2 051428Z 31008KT 13/01 A3004 RMK A01 T01270012  RH  045%=      5-min Rain = 0
KSE2 051429Z 31008KT 13/02 A3004 RMK A01 T01280015  RH  046%=      5-min Rain = 0
KSE2 051430Z 31010KT 13/01 A3004 RMK A01 T01300014  RH  045%=      5-min Rain = 0
KSE2 051431Z 31012KT 13/01 A3004 RMK A01 T01300009  RH  044%=      5-min Rain = 0
KSE2 051432Z 31010KT 13/01 A3004 RMK A01 T01300009  RH  044%=      5-min Rain = 0
KSE2 051433Z 31009KT 13/01 A3004 RMK A01 T01300010  RH  044%=      5-min Rain = 0
KSE2 051434Z 31011KT 13/01 A3004 RMK A01 T01300009  RH  044%=      5-min Rain = 0
KSE2 051435Z 31010KT 13/01 A3004 RMK A01 T01300008  RH  043%=      5-min Rain = 0
KSE2 051436Z 31011KT 13/01 A3004 RMK A01 T01300008  RH  043%=      5-min Rain = 0
KSE2 051437Z 31013G19KT 13/01 A3004 RMK A01 T01300007  RH  043%=      5-min Rain = 0
KSE2 051438Z 32012KT 13/01 A3004 RMK A01 T01300005  RH  042%=      5-min Rain = 0
KSE2 051439Z 31009KT 13/01 A3004 RMK A01 T01300005  RH  042%=      5-min Rain = 0
KSE2 051440Z 31008KT 13/01 A3004 RMK A01 T01310008  RH  043%=      5-min Rain = 0
KSE2 051441Z 32009G15KT 13/01 A3004 RMK A01 T01320010  RH  043%=      5-min Rain = 0
KSE2 051442Z 31010KT 13/01 A3004 RMK A01 T01320008  RH  043%=      5-min Rain = 0
KSE2 051443Z 31011KT 13/01 A3004 RMK A01 T01320006  RH  042%=      5-min Rain = 0
KSE2 051444Z 32012KT 13/01 A3004 RMK A01 T01320006  RH  042%=      5-min Rain = 0
KSE2 051445Z 32010KT 13/01 A3004 RMK A01 T01320007  RH  042%=      5-min Rain = 0
KSE2 051446Z 31012G17KT 13/01 A3004 RMK A01 T01330007  RH  042%=      5-min Rain = 0
KSE2 051447Z 31012G18KT 13/01 A3004 RMK A01 T01330006  RH  042%=      5-min Rain = 0
KSE2 051448Z 31014G19KT 13/00 A3005 RMK A01 T01330003  RH  041%=      5-min Rain = 0
KSE2 051449Z 31009KT 13/01 A3005 RMK A01 T01320005  RH  042%=      5-min Rain = 0
KSE2 051450Z 31010KT 13/01 A3005 RMK A01 T01320006  RH  042%=      5-min Rain = 0
KSE2 051451Z 31008G14KT 13/01 A3004 RMK A01 T01330008  RH  042%=      5-min Rain = 0
KSE2 051452Z 30012G17KT 13/01 A3005 RMK A01 T01330005  RH  042%=      5-min Rain = 0
KSE2 051453Z 31010G15KT 13/01 A3005 RMK A01 T01330005  RH  041%=      5-min Rain = 0
KSE2 051454Z 31012KT 13/00 A3005 RMK A01 T01330003  RH  041%=      5-min Rain = 0
KSE2 051455Z 31012KT 13/00 A3004 RMK A01 T01330004  RH  041%=      5-min Rain = 0
KSE2 051456Z 31011KT 13/00 A3004 RMK A01 T01340004  RH  041%=      5-min Rain = 0
KSE2 051457Z 31011G16KT 13/00 A3005 RMK A01 T01340004  RH  041%=      5-min Rain = 0
KSE2 051458Z 30011KT 13/01 A3005 RMK A01 T01340005  RH  041%=      5-min Rain = 0
KSE2 051459Z 30010KT 14/01 A3005 RMK A01 T01350006  RH  041%=      5-min Rain = 0
KSE2 051500Z 30010G15KT 14/01 A3005 RMK A01 T01360008  RH  042%=      5-min Rain = 0
KSE2 051501Z 31011KT 14/01 A3005 RMK A01 T01370005  RH  040%=      5-min Rain = 0
KSE2 051502Z 31010KT 14/01 A3005 RMK A01 T01370005  RH  040%=      5-min Rain = 0
KSE2 051503Z 31011KT 14/01 A3005 RMK A01 T01370005  RH  040%=      5-min Rain = 0
KSE2 051504Z 31011KT 14/00 A3005 RMK A01 T01360003  RH  040%=      5-min Rain = 0
KSE2 051505Z 30007KT 14/01 A3005 RMK A01 T01350006  RH  041%=      5-min Rain = 0
KSE2 051506Z 31009KT 14/01 A3005 RMK A01 T01350007  RH  042%=      5-min Rain = 0
KSE2 051507Z 31011KT 14/00 A3005 RMK A01 T01350004  RH  041%=      5-min Rain = 0
KSE2 051508Z 30010KT 14/01 A3005 RMK A01 T01350005  RH  041%=      5-min Rain = 0
KSE2 051509Z 31010KT 14/01 A3005 RMK A01 T01350005  RH  041%=      5-min Rain = 0
KSE2 051510Z 31008KT 14/01 A3005 RMK A01 T01350006  RH  041%=      5-min Rain = 0
KSE2 051511Z 31011KT 14/01 A3005 RMK A01 T01350005  RH  041%=      5-min Rain = 0
KSE2 051512Z 31009KT 13/01 A3005 RMK A01 T01340006  RH  042%=      5-min Rain = 0
KSE2 051513Z 31010KT 13/01 A3005 RMK A01 T01340006  RH  042%=      5-min Rain = 0
KSE2 051514Z 31010KT 13/01 A3005 RMK A01 T01340007  RH  042%=      5-min Rain = 0
KSE2 051515Z 31006G12KT 13/01 A3005 RMK A01 T01340007  RH  042%=      5-min Rain = 0
KSE2 051516Z 31008KT 14/01 A3005 RMK A01 T01360008  RH  042%=      5-min Rain = 0
KSE2 051517Z 32010KT 14/01 A3005 RMK A01 T01370009  RH  042%=      5-min Rain = 0
KSE2 051518Z 31007KT 14/01 A3005 RMK A01 T01380009  RH  041%=      5-min Rain = 0
KSE2 051519Z 31008G15KT 14/01 A3005 RMK A01 T01400014  RH  042%=      5-min Rain = 0
KSE2 051520Z 32010KT 14/01 A3005 RMK A01 T01420011  RH  041%=      5-min Rain = 0
KSE2 051521Z 32009KT 14/01 A3005 RMK A01 T01430011  RH  041%=      5-min Rain = 0
KSE2 051522Z 32008KT 14/01 A3005 RMK A01 T01440011  RH  041%=      5-min Rain = 0
KSE2 051523Z 32009KT 15/01 A3005 RMK A01 T01460014  RH  041%=      5-min Rain = 0
KSE2 051524Z 33009G14KT 15/01 A3005 RMK A01 T01470014  RH  040%=      5-min Rain = 0
KSE2 051525Z 33008KT 15/02 A3005 RMK A01 T01480015  RH  040%=      5-min Rain = 0
KSE2 051526Z 33011KT 15/01 A3005 RMK A01 T01490013  RH  039%=      5-min Rain = 0
KSE2 051527Z 33013KT 15/01 A3005 RMK A01 T01480010  RH  039%=      5-min Rain = 0
KSE2 051528Z 32012KT 15/01 A3005 RMK A01 T01460010  RH  039%=      5-min Rain = 0
KSE2 051529Z 32012G18KT 15/01 A3005 RMK A01 T01470010  RH  039%=      5-min Rain = 0
KSE2 051530Z 32009KT 15/02 A3006 RMK A01 T01500015  RH  040%=      5-min Rain = 0
KSE2 051531Z 32009G15KT 15/02 A3006 RMK A01 T01520018  RH  040%=      5-min Rain = 0
KSE2 051532Z 32011G16KT 16/02 A3006 RMK A01 T01550016  RH  039%=      5-min Rain = 0
KSE2 051533Z 33011KT 16/02 A3006 RMK A01 T01560015  RH  038%=      5-min Rain = 0
KSE2 051534Z 33014KT 16/01 A3006 RMK A01 T01580013  RH  037%=      5-min Rain = 0
KSE2 051535Z 32013KT 16/01 A3006 RMK A01 T01580010  RH  037%=      5-min Rain = 0
KSE2 051536Z 33011KT 16/01 A3006 RMK A01 T01570010  RH  037%=      5-min Rain = 0
KSE2 051537Z 32012KT 16/01 A3006 RMK A01 T01570010  RH  037%=      5-min Rain = 0
KSE2 051538Z 32009KT 16/01 A3006 RMK A01 T01570009  RH  037%=      5-min Rain = 0
KSE2 051539Z 33010KT 16/01 A3006 RMK A01 T01570009  RH  037%=      5-min Rain = 0
KSE2 051540Z 33007KT 16/01 A3006 RMK A01 T01570010  RH  037%=      5-min Rain = 0
KSE2 051541Z 33014KT 16/01 A3006 RMK A01 T01580010  RH  037%=      5-min Rain = 0
KSE2 051542Z 33011KT 16/01 A3006 RMK A01 T01580007  RH  036%=      5-min Rain = 0
KSE2 051543Z 33013KT 16/01 A3006 RMK A01 T01580008  RH  036%=      5-min Rain = 0
KSE2 051544Z 33011KT 16/01 A3006 RMK A01 T01570007  RH  036%=      5-min Rain = 0
KSE2 051545Z 33011KT 16/01 A3006 RMK A01 T01570008  RH  036%=      5-min Rain = 0
KSE2 051546Z 32010KT 16/01 A3006 RMK A01 T01570008  RH  036%=      5-min Rain = 0
KSE2 051547Z 33010KT 16/01 A3006 RMK A01 T01570008  RH  036%=      5-min Rain = 0
KSE2 051548Z 32013KT 16/01 A3006 RMK A01 T01570008  RH  036%=      5-min Rain = 0
KSE2 051549Z 32012KT 16/01 A3006 RMK A01 T01570006  RH  036%=      5-min Rain = 0
KSE2 051550Z 32009KT 16/01 A3006 RMK A01 T01560007  RH  036%=      5-min Rain = 0
KSE2 051551Z 32011KT 16/01 A3006 RMK A01 T01560008  RH  037%=      5-min Rain = 0
KSE2 051552Z 32011KT 16/01 A3006 RMK A01 T01560006  RH  036%=      5-min Rain = 0
KSE2 051553Z 32012KT 16/01 A3006 RMK A01 T01560007  RH  036%=      5-min Rain = 0
KSE2 051554Z 33013G18KT 16/01 A3006 RMK A01 T01560006  RH  036%=      5-min Rain = 0
KSE2 051555Z 33013G18KT 16/01 A3006 RMK A01 T01560006  RH  036%=      5-min Rain = 0
KSE2 051556Z 33012G17KT 16/01 A3006 RMK A01 T01560005  RH  036%=      5-min Rain = 0
KSE2 051557Z 32012G17KT 16/01 A3006 RMK A01 T01550006  RH  036%=      5-min Rain = 0
KSE2 051558Z 32012KT 16/01 A3006 RMK A01 T01550006  RH  036%=      5-min Rain = 0
KSE2 051559Z 32009KT 16/01 A3006 RMK A01 T01550006  RH  036%=      5-min Rain = 0
KSE2 051600Z 33009G14KT 16/01 A3006 RMK A01 T01550008  RH  037%=      5-min Rain = 0
KSE2 051601Z 33009KT 16/01 A3005 RMK A01 T01560009  RH  037%=      5-min Rain = 0
KSE2 051602Z 32009KT 16/01 A3005 RMK A01 T01570009  RH  037%=      5-min Rain = 0
KSE2 051603Z 32010KT 16/01 A3005 RMK A01 T01570009  RH  037%=      5-min Rain = 0
KSE2 051604Z 31009KT 16/01 A3005 RMK A01 T01580011  RH  037%=      5-min Rain = 0
KSE2 051605Z 31012KT 16/01 A3005 RMK A01 T01580010  RH  037%=      5-min Rain = 0
KSE2 051606Z 32010G15KT 16/01 A3005 RMK A01 T01580010  RH  036%=      5-min Rain = 0
KSE2 051607Z 33011KT 16/01 A3005 RMK A01 T01580009  RH  036%=      5-min Rain = 0
KSE2 051608Z 33010KT 16/01 A3005 RMK A01 T01570008  RH  036%=      5-min Rain = 0
KSE2 051609Z 33010KT 16/01 A3006 RMK A01 T01570009  RH  037%=      5-min Rain = 0
KSE2 051610Z 33009KT 16/01 A3006 RMK A01 T01580010  RH  037%=      5-min Rain = 0
KSE2 051611Z 32010G15KT 16/01 A3006 RMK A01 T01580009  RH  036%=      5-min Rain = 0
KSE2 051612Z 33007KT 16/01 A3006 RMK A01 T01580009  RH  036%=      5-min Rain = 0
KSE2 051613Z 32012G17KT 16/01 A3006 RMK A01 T01580009  RH  036%=      5-min Rain = 0
KSE2 051614Z 31011KT 16/01 A3006 RMK A01 T01570006  RH  036%=      5-min Rain = 0
KSE2 051615Z 32011KT 16/01 A3006 RMK A01 T01560005  RH  036%=      5-min Rain = 0
KSE2 051616Z 31012KT 15/01 A3006 RMK A01 T01540005  RH  036%=      5-min Rain = 0
KSE2 051617Z 32010KT 15/01 A3006 RMK A01 T01540006  RH  036%=      5-min Rain = 0
KSE2 051618Z 33010KT 15/01 A3006 RMK A01 T01540006  RH  037%=      5-min Rain = 0
KSE2 051619Z 33013KT 15/01 A3006 RMK A01 T01540006  RH  037%=      5-min Rain = 0
KSE2 051620Z 32014KT 15/00 A3006 RMK A01 T01540004  RH  036%=      5-min Rain = 0
KSE2 051621Z 32012G18KT 15/00 A3006 RMK A01 T01530003  RH  036%=      5-min Rain = 0
KSE2 051622Z 32013KT 15/00 A3006 RMK A01 T01520002  RH  036%=      5-min Rain = 0
KSE2 051623Z 33010G15KT 15/00 A3006 RMK A01 T01520003  RH  036%=      5-min Rain = 0
KSE2 051624Z 33010KT 15/01 A3006 RMK A01 T01520005  RH  037%=      5-min Rain = 0
KSE2 051625Z 32011KT 15/00 A3006 RMK A01 T01510003  RH  036%=      5-min Rain = 0
KSE2 051626Z 32011G16KT 15/00 A3006 RMK A01 T01520003  RH  036%=      5-min Rain = 0
KSE2 051627Z 32007KT 15/01 A3006 RMK A01 T01520006  RH  037%=      5-min Rain = 0
KSE2 051628Z 33010KT 15/01 A3006 RMK A01 T01530006  RH  037%=      5-min Rain = 0
KSE2 051629Z 32010KT 15/00 A3006 RMK A01 T01530004  RH  036%=      5-min Rain = 0
KSE2 051630Z 33011G16KT 15/01 A3006 RMK A01 T01520005  RH  037%=      5-min Rain = 0
KSE2 051631Z 31009KT 15/00 A3006 RMK A01 T01510003  RH  036%=      5-min Rain = 0
KSE2 051632Z 31011KT 15/00 A3006 RMK A01 T01510004  RH  037%=      5-min Rain = 0
KSE2 051633Z 32008KT 15/00 A3006 RMK A01 T01510003  RH  036%=      5-min Rain = 0
KSE2 051634Z 32007G12KT 15/01 A3006 RMK A01 T01520005  RH  037%=      5-min Rain = 0
KSE2 051635Z 31010KT 15/01 A3006 RMK A01 T01520005  RH  037%=      5-min Rain = 0
KSE2 051636Z 31012KT 15/00 A3006 RMK A01 T01520004  RH  036%=      5-min Rain = 0
KSE2 051637Z 31010KT 15/00 A3006 RMK A01 T01530003  RH  036%=      5-min Rain = 0
KSE2 051638Z 31008KT 15/01 A3006 RMK A01 T01540005  RH  036%=      5-min Rain = 0
KSE2 051639Z 31010G15KT 16/01 A3007 RMK A01 T01560006  RH  036%=      5-min Rain = 0
KSE2 051640Z 31009KT 16/00 A3006 RMK A01 T01560004  RH  035%=      5-min Rain = 0
KSE2 051641Z 31008KT 16/01 A3006 RMK A01 T01560005  RH  036%=      5-min Rain = 0
KSE2 051642Z 32007KT 16/00 A3006 RMK A01 T01560004  RH  036%=      5-min Rain = 0
KSE2 051643Z 31007KT 16/01 A3006 RMK A01 T01550005  RH  036%=      5-min Rain = 0
KSE2 051644Z 31007KT 16/01 A3006 RMK A01 T01550006  RH  036%=      5-min Rain = 0
KSE2 051645Z 33009KT 16/01 A3006 RMK A01 T01550006  RH  036%=      5-min Rain = 0
KSE2 051646Z 32008KT 16/01 A3006 RMK A01 T01550007  RH  037%=      5-min Rain = 0
KSE2 051647Z 31007KT 16/01 A3006 RMK A01 T01570009  RH  037%=      5-min Rain = 0
KSE2 051648Z 31007KT 16/01 A3006 RMK A01 T01600009  RH  036%=      5-min Rain = 0
KSE2 051649Z 29006KT 16/01 A3006 RMK A01 T01620013  RH  036%=      5-min Rain = 0
KSE2 051650Z 31007KT 17/02 A3006 RMK A01 T01660018  RH  037%=      5-min Rain = 0
KSE2 051651Z 30009KT 17/01 A3006 RMK A01 T01690012  RH  034%=      5-min Rain = 0
KSE2 051652Z 29008KT 17/01 A3006 RMK A01 T01680010  RH  034%=      5-min Rain = 0
KSE2 051653Z 30009KT 17/01 A3006 RMK A01 T01670012  RH  035%=      5-min Rain = 0
KSE2 051654Z 30009KT 17/01 A3006 RMK A01 T01690011  RH  035%=      5-min Rain = 0
KSE2 051655Z 30010KT 17/01 A3006 RMK A01 T01700011  RH  034%=      5-min Rain = 0
KSE2 051656Z 30010KT 17/01 A3006 RMK A01 T01710011  RH  034%=      5-min Rain = 0
KSE2 051657Z 30011KT 17/01 A3006 RMK A01 T01720011  RH  034%=      5-min Rain = 0
KSE2 051658Z 31011G16KT 17/01 A3006 RMK A01 T01730011  RH  033%=      5-min Rain = 0
KSE2 051659Z 31010KT 17/01 A3006 RMK A01 T01740009  RH  033%=      5-min Rain = 0
KSE2 051700Z 31011KT 18/01 A3006 RMK A01 T01750011  RH  033%=      5-min Rain = 0
KSE2 051701Z 31009KT 18/01 A3006 RMK A01 T01750009  RH  033%=      5-min Rain = 0
KSE2 051702Z 30011KT 18/01 A3006 RMK A01 T01760011  RH  033%=      5-min Rain = 0
KSE2 051703Z 30011KT 18/01 A3006 RMK A01 T01770011  RH  033%=      5-min Rain = 0
KSE2 051704Z 30008KT 18/01 A3006 RMK A01 T01770011  RH  033%=      5-min Rain = 0
KSE2 051705Z 31007KT 18/01 A3006 RMK A01 T01770012  RH  033%=      5-min Rain = 0
KSE2 051706Z 30011KT 18/01 A3006 RMK A01 T01760010  RH  032%=      5-min Rain = 0
KSE2 051707Z 30009KT 18/01 A3006 RMK A01 T01750008  RH  033%=      5-min Rain = 0
KSE2 051708Z 31007KT 17/01 A3006 RMK A01 T01740008  RH  033%=      5-min Rain = 0
KSE2 051709Z 31007KT 18/01 A3006 RMK A01 T01760013  RH  033%=      5-min Rain = 0
KSE2 051710Z 32008KT 18/01 A3006 RMK A01 T01780013  RH  033%=      5-min Rain = 0
KSE2 051711Z 31011KT 18/02 A3006 RMK A01 T01810015  RH  033%=      5-min Rain = 0
KSE2 051712Z 30009KT 18/01 A3006 RMK A01 T01820013  RH  032%=      5-min Rain = 0
KSE2 051713Z 30008G13KT 18/02 A3006 RMK A01 T01830016  RH  033%=      5-min Rain = 0
KSE2 051714Z 32007G12KT 19/02 A3006 RMK A01 T01850018  RH  033%=      5-min Rain = 0
KSE2 051715Z 31009G14KT 19/01 A3006 RMK A01 T01870014  RH  031%=      5-min Rain = 0
KSE2 051716Z 31011KT 19/02 A3006 RMK A01 T01860015  RH  032%=      5-min Rain = 0
KSE2 051717Z 32008G14KT 19/02 A3006 RMK A01 T01860016  RH  032%=      5-min Rain = 0
KSE2 051718Z 32010G16KT 19/01 A3006 RMK A01 T01860013  RH  031%=      5-min Rain = 0
KSE2 051719Z 32008KT 18/01 A3006 RMK A01 T01830011  RH  032%=      5-min Rain = 0
KSE2 051720Z 29007KT 18/02 A3006 RMK A01 T01820016  RH  033%=      5-min Rain = 0
KSE2 051721Z 31007KT 18/01 A3006 RMK A01 T01830014  RH  032%=      5-min Rain = 0
KSE2 051722Z 32010KT 18/01 A3006 RMK A01 T01830013  RH  032%=      5-min Rain = 0
KSE2 051723Z 32011KT 18/01 A3006 RMK A01 T01800011  RH  032%=      5-min Rain = 0
KSE2 051724Z 31007KT 18/02 A3006 RMK A01 T01800016  RH  033%=      5-min Rain = 0
KSE2 051725Z 29008KT 18/02 A3006 RMK A01 T01830019  RH  033%=      5-min Rain = 0
KSE2 051726Z 31010KT 19/02 A3006 RMK A01 T01870019  RH  032%=      5-min Rain = 0
KSE2 051727Z 32010KT 19/01 A3006 RMK A01 T01860013  RH  031%=      5-min Rain = 0
KSE2 051728Z 31007KT 18/02 A3006 RMK A01 T01840016  RH  033%=      5-min Rain = 0
KSE2 051729Z 31005G10KT 19/02 A3006 RMK A01 T01870022  RH  033%=      5-min Rain = 0
KSE2 051730Z 30011KT 19/02 A3006 RMK A01 T01900017  RH  032%=      5-min Rain = 0
KSE2 051731Z 30011G16KT 19/02 A3006 RMK A01 T01890016  RH  031%=      5-min Rain = 0
KSE2 051732Z 31008KT 19/02 A3006 RMK A01 T01880016  RH  032%=      5-min Rain = 0
KSE2 051733Z 31008KT 19/02 A3006 RMK A01 T01890017  RH  032%=      5-min Rain = 0
KSE2 051734Z 29009KT 19/02 A3006 RMK A01 T01910020  RH  032%=      5-min Rain = 0
KSE2 051735Z 31013G18KT 19/02 A3006 RMK A01 T01940021  RH  032%=      5-min Rain = 0
KSE2 051736Z 30013KT 19/02 A3005 RMK A01 T01940015  RH  030%=      5-min Rain = 0
KSE2 051737Z 30012KT 19/02 A3005 RMK A01 T01920017  RH  031%=      5-min Rain = 0
KSE2 051738Z 30012KT 19/01 A3005 RMK A01 T01920014  RH  030%=      5-min Rain = 0
KSE2 051739Z 29012G17KT 19/01 A3005 RMK A01 T01920014  RH  030%=      5-min Rain = 0
KSE2 051740Z 29015G20KT 19/01 A3005 RMK A01 T01920014  RH  030%=      5-min Rain = 0
KSE2 051741Z 31015KT 19/01 A3005 RMK A01 T01920013  RH  030%=      5-min Rain = 0
KSE2 051742Z 31013KT 19/01 A3005 RMK A01 T01910011  RH  030%=      5-min Rain = 0
KSE2 051743Z 32008KT 19/02 A3005 RMK A01 T01910015  RH  031%=      5-min Rain = 0
KSE2 051744Z 31011G17KT 19/02 A3005 RMK A01 T01940017  RH  031%=      5-min Rain = 0
KSE2 051745Z 31013KT 20/01 A3005 RMK A01 T01950014  RH  030%=      5-min Rain = 0
KSE2 051746Z 31010KT 19/01 A3005 RMK A01 T01930012  RH  030%=      5-min Rain = 0
KSE2 051747Z 32009KT 19/01 A3005 RMK A01 T01930014  RH  030%=      5-min Rain = 0
KSE2 051748Z 33010G17KT 19/02 A3005 RMK A01 T01940015  RH  030%=      5-min Rain = 0
KSE2 051749Z 32012KT 20/01 A3005 RMK A01 T01960014  RH  030%=      5-min Rain = 0
KSE2 051750Z 31011G16KT 20/01 A3005 RMK A01 T01960012  RH  029%=      5-min Rain = 0
KSE2 051751Z 31014KT 20/01 A3005 RMK A01 T01960013  RH  029%=      5-min Rain = 0
KSE2 051752Z 32012G17KT 20/01 A3005 RMK A01 T01960011  RH  029%=      5-min Rain = 0
KSE2 051753Z 31012G19KT 20/01 A3005 RMK A01 T01950013  RH  030%=      5-min Rain = 0
KSE2 051754Z 30008G13KT 20/02 A3005 RMK A01 T01960018  RH  030%=      5-min Rain = 0
KSE2 051755Z 29012G18KT 20/02 A3005 RMK A01 T01990015  RH  029%=      5-min Rain = 0
KSE2 051756Z 30012KT 20/01 A3005 RMK A01 T01990010  RH  028%=      5-min Rain = 0
KSE2 051757Z 30011G19KT 20/01 A3005 RMK A01 T01960010  RH  029%=      5-min Rain = 0
KSE2 051758Z 32009KT 20/01 A3005 RMK A01 T01960014  RH  030%=      5-min Rain = 0
KSE2 051759Z 33013KT 20/01 A3005 RMK A01 T01990014  RH  029%=      5-min Rain = 0
KSE2 051800Z 33010G15KT 20/01 A3005 RMK A01 T01990012  RH  029%=      5-min Rain = 0
KSE2 051801Z 31012KT 20/01 A3005 RMK A01 T01980013  RH  029%=      5-min Rain = 0
KSE2 051802Z 32014G19KT 20/01 A3005 RMK A01 T01990011  RH  028%=      5-min Rain = 0
KSE2 051803Z 31015KT 20/01 A3005 RMK A01 T01980010  RH  028%=      5-min Rain = 0
KSE2 051804Z 30013KT 20/01 A3005 RMK A01 T01980010  RH  028%=      5-min Rain = 0
KSE2 051805Z 30012G20KT 20/01 A3005 RMK A01 T01980012  RH  029%=      5-min Rain = 0
KSE2 051806Z 30017G24KT 20/01 A3005 RMK A01 T01980010  RH  028%=      5-min Rain = 0
KSE2 051807Z 30016KT 20/01 A3005 RMK A01 T01970010  RH  029%=      5-min Rain = 0
KSE2 051808Z 30011G16KT 20/01 A3005 RMK A01 T01970011  RH  029%=      5-min Rain = 0
KSE2 051809Z 31013KT 20/01 A3005 RMK A01 T01990012  RH  029%=      5-min Rain = 0
KSE2 051810Z 30010G15KT 20/01 A3005 RMK A01 T01980010  RH  028%=      5-min Rain = 0
KSE2 051811Z 31008G13KT 20/01 A3005 RMK A01 T01980010  RH  028%=      5-min Rain = 0
KSE2 051812Z 32013G22KT 20/01 A3005 RMK A01 T01980012  RH  029%=      5-min Rain = 0
KSE2 051813Z 32015G21KT 20/01 A3005 RMK A01 T01980010  RH  028%=      5-min Rain = 0
KSE2 051814Z 30011G16KT 20/01 A3005 RMK A01 T01980012  RH  029%=      5-min Rain = 0
KSE2 051815Z 31013G18KT 20/01 A3005 RMK A01 T01990011  RH  028%=      5-min Rain = 0
KSE2 051816Z 31013KT 20/01 A3005 RMK A01 T01990012  RH  029%=      5-min Rain = 0
KSE2 051817Z 31010G15KT 20/01 A3005 RMK A01 T01990014  RH  029%=      5-min Rain = 0
KSE2 051818Z 31013KT 20/02 A3005 RMK A01 T02020016  RH  029%=      5-min Rain = 0
KSE2 051819Z 31009G14KT 20/01 A3005 RMK A01 T02020014  RH  028%=      5-min Rain = 0
KSE2 051820Z 33012KT 20/02 A3005 RMK A01 T02030016  RH  029%=      5-min Rain = 0
KSE2 051821Z 32010KT 20/01 A3004 RMK A01 T02030013  RH  028%=      5-min Rain = 0
KSE2 051822Z 34013KT 20/02 A3004 RMK A01 T02020017  RH  029%=      5-min Rain = 0
KSE2 051823Z 32014KT 20/02 A3004 RMK A01 T02040017  RH  029%=      5-min Rain = 0
KSE2 051824Z 32011G16KT 21/02 A3005 RMK A01 T02050015  RH  028%=      5-min Rain = 0
KSE2 051825Z 32011KT 21/02 A3005 RMK A01 T02050016  RH  029%=      5-min Rain = 0
KSE2 051826Z 31014G20KT 21/02 A3004 RMK A01 T02050015  RH  028%=      5-min Rain = 0
KSE2 051827Z 31017KT 21/01 A3004 RMK A01 T02050011  RH  028%=      5-min Rain = 0
KSE2 051828Z 31012G17KT 20/01 A3005 RMK A01 T02020009  RH  028%=      5-min Rain = 0
KSE2 051829Z 31013KT 20/01 A3005 RMK A01 T02010011  RH  028%=      5-min Rain = 0
KSE2 051830Z 33013KT 20/01 A3005 RMK A01 T02010013  RH  029%=      5-min Rain = 0
KSE2 051831Z 33016G21KT 20/01 A3005 RMK A01 T02030013  RH  028%=      5-min Rain = 0
KSE2 051832Z 33016G21KT 20/01 A3005 RMK A01 T02040012  RH  028%=      5-min Rain = 0
KSE2 051833Z 32012G18KT 20/01 A3005 RMK A01 T02020010  RH  028%=      5-min Rain = 0
KSE2 051834Z 33011G17KT 20/01 A3004 RMK A01 T02010014  RH  029%=      5-min Rain = 0
KSE2 051835Z 33014G21KT 20/02 A3004 RMK A01 T02040016  RH  029%=      5-min Rain = 0
KSE2 051836Z 33014G19KT 20/01 A3004 RMK A01 T02040011  RH  028%=      5-min Rain = 0
KSE2 051837Z 32013G18KT 20/01 A3004 RMK A01 T02030012  RH  028%=      5-min Rain = 0
KSE2 051838Z 33015G20KT 20/01 A3004 RMK A01 T02020009  RH  028%=      5-min Rain = 0
KSE2 051839Z 32013KT 20/01 A3004 RMK A01 T01990009  RH  028%=      5-min Rain = 0
KSE2 051840Z 32014KT 20/01 A3004 RMK A01 T01990012  RH  029%=      5-min Rain = 0
KSE2 051841Z 34011KT 20/02 A3004 RMK A01 T02010016  RH  029%=      5-min Rain = 0
KSE2 051842Z 33009G14KT 20/02 A3004 RMK A01 T02030015  RH  028%=      5-min Rain = 0
KSE2 051843Z 30012G17KT 21/02 A3004 RMK A01 T02050018  RH  029%=      5-min Rain = 0
KSE2 051844Z 31015G22KT 21/02 A3004 RMK A01 T02070015  RH  028%=      5-min Rain = 0
KSE2 051845Z 32015G22KT 21/02 A3004 RMK A01 T02060016  RH  028%=      5-min Rain = 0
KSE2 051846Z 32018G23KT 21/02 A3004 RMK A01 T02060015  RH  028%=      5-min Rain = 0
KSE2 051847Z 32018G25KT 20/02 A3004 RMK A01 T02040015  RH  028%=      5-min Rain = 0
KSE2 051848Z 33014G19KT 20/02 A3004 RMK A01 T02030016  RH  029%=      5-min Rain = 0
KSE2 051849Z 34012G17KT 20/01 A3004 RMK A01 T02020014  RH  029%=      5-min Rain = 0
KSE2 051850Z 33011KT 20/02 A3004 RMK A01 T02010017  RH  029%=      5-min Rain = 0
KSE2 051851Z 31011G16KT 20/02 A3004 RMK A01 T02030018  RH  029%=      5-min Rain = 0
KSE2 051852Z 32014G19KT 21/02 A3004 RMK A01 T02050017  RH  029%=      5-min Rain = 0
KSE2 051853Z 32017G22KT 20/02 A3004 RMK A01 T02040019  RH  029%=      5-min Rain = 0
KSE2 051854Z 32015KT 20/01 A3004 RMK A01 T02010014  RH  029%=      5-min Rain = 0
KSE2 051855Z 32016KT 20/02 A3005 RMK A01 T01980016  RH  030%=      5-min Rain = 0
KSE2 051856Z 34012G18KT 20/02 A3004 RMK A01 T01980017  RH  030%=      5-min Rain = 0
KSE2 051857Z 34017KT 20/02 A3004 RMK A01 T02000018  RH  030%=      5-min Rain = 0
KSE2 051858Z 34016G23KT 20/02 A3004 RMK A01 T02010017  RH  029%=      5-min Rain = 0
KSE2 051859Z 34018G24KT 20/02 A3004 RMK A01 T02020017  RH  029%=      5-min Rain = 0
KSE2 051900Z 32016G22KT 20/02 A3004 RMK A01 T02030020  RH  030%=      5-min Rain = 0
KSE2 051901Z 32017G22KT 20/02 A3004 RMK A01 T02030018  RH  029%=      5-min Rain = 0
KSE2 051902Z 32014G19KT 20/02 A3004 RMK A01 T02010018  RH  030%=      5-min Rain = 0
KSE2 051903Z 32012KT 20/02 A3004 RMK A01 T02000021  RH  030%=      5-min Rain = 0
KSE2 051904Z 34012KT 20/02 A3004 RMK A01 T02020020  RH  030%=      5-min Rain = 0
KSE2 051905Z 33014G19KT 20/02 A3004 RMK A01 T02020018  RH  029%=      5-min Rain = 0
KSE2 051906Z 33015G20KT 20/02 A3004 RMK A01 T02010016  RH  029%=      5-min Rain = 0
KSE2 051907Z 32012G18KT 20/02 A3004 RMK A01 T02010017  RH  029%=      5-min Rain = 0
KSE2 051908Z 31009G17KT 20/02 A3004 RMK A01 T02030021  RH  030%=      5-min Rain = 0
KSE2 051909Z 33014G20KT 21/02 A3004 RMK A01 T02050023  RH  030%=      5-min Rain = 0
KSE2 051910Z 33016G22KT 21/02 A3004 RMK A01 T02060021  RH  029%=      5-min Rain = 0
KSE2 051911Z 32011G16KT 21/02 A3004 RMK A01 T02050020  RH  029%=      5-min Rain = 0
KSE2 051912Z 33009G14KT 20/02 A3004 RMK A01 T02040021  RH  030%=      5-min Rain = 0
KSE2 051913Z 33014G19KT 21/02 A3004 RMK A01 T02070022  RH  029%=      5-min Rain = 0
KSE2 051914Z 34013KT 21/02 A3004 RMK A01 T02080021  RH  029%=      5-min Rain = 0
KSE2 051915Z 33015G21KT 21/02 A3005 RMK A01 T02070020  RH  029%=      5-min Rain = 0
KSE2 051916Z 33017G22KT 21/02 A3005 RMK A01 T02050018  RH  029%=      5-min Rain = 0
KSE2 051917Z 34018KT 20/02 A3004 RMK A01 T02020018  RH  030%=      5-min Rain = 0
KSE2 051918Z 34012G17KT 20/02 A3004 RMK A01 T02000021  RH  031%=      5-min Rain = 0
KSE2 051919Z 33010G15KT 20/03 A3004 RMK A01 T02020026  RH  031%=      5-min Rain = 0
KSE2 051920Z 31013G18KT 21/03 A3004 RMK A01 T02050028  RH  031%=      5-min Rain = 0
KSE2 051921Z 31016G22KT 20/03 A3004 RMK A01 T02040025  RH  030%=      5-min Rain = 0
KSE2 051922Z 31015G20KT 20/03 A3004 RMK A01 T02020025  RH  031%=      5-min Rain = 0
KSE2 051923Z 32016G21KT 20/02 A3004 RMK A01 T01990024  RH  031%=      5-min Rain = 0
KSE2 051924Z 32013G20KT 20/03 A3004 RMK A01 T01980027  RH  032%=      5-min Rain = 0
KSE2 051925Z 30014G21KT 20/03 A3004 RMK A01 T02010029  RH  032%=      5-min Rain = 0
KSE2 051926Z 31012G18KT 20/03 A3004 RMK A01 T02020027  RH  031%=      5-min Rain = 0
KSE2 051927Z 33013KT 20/03 A3004 RMK A01 T02020029  RH  032%=      5-min Rain = 0
KSE2 051928Z 32011G17KT 20/03 A3004 RMK A01 T02030028  RH  031%=      5-min Rain = 0
KSE2 051929Z 32019G26KT 21/03 A3004 RMK A01 T02050029  RH  031%=      5-min Rain = 0
KSE2 051930Z 32019KT 20/03 A3004 RMK A01 T02030026  RH  031%=      5-min Rain = 0
KSE2 051931Z 32014G19KT 20/03 A3004 RMK A01 T01990027  RH  032%=      5-min Rain = 0
KSE2 051932Z 32015G21KT 20/03 A3004 RMK A01 T02000031  RH  033%=      5-min Rain = 0
KSE2 051933Z 31015G20KT 20/03 A3004 RMK A01 T02020028  RH  032%=      5-min Rain = 0
KSE2 051934Z 31010G17KT 20/03 A3004 RMK A01 T02010028  RH  032%=      5-min Rain = 0
KSE2 051935Z 32011G16KT 20/03 A3004 RMK A01 T02010030  RH  032%=      5-min Rain = 0
KSE2 051936Z 31014KT 20/03 A3004 RMK A01 T02030031  RH  032%=      5-min Rain = 0
KSE2 051937Z 32017KT 20/03 A3004 RMK A01 T02040028  RH  031%=      5-min Rain = 0
KSE2 051938Z 33016G21KT 20/03 A3004 RMK A01 T02020028  RH  031%=      5-min Rain = 0
KSE2 051939Z 33019G24KT 20/03 A3004 RMK A01 T02010027  RH  032%=      5-min Rain = 0
KSE2 051940Z 33016KT 20/03 A3004 RMK A01 T02010028  RH  032%=      5-min Rain = 0
KSE2 051941Z 33021G26KT 20/03 A3004 RMK A01 T02000027  RH  032%=      5-min Rain = 0
KSE2 051942Z 32019KT 20/03 A3004 RMK A01 T01990027  RH  032%=      5-min Rain = 0
KSE2 051943Z 32016G21KT 20/03 A3004 RMK A01 T01980027  RH  032%=      5-min Rain = 0
KSE2 051944Z 33015G22KT 20/03 A3004 RMK A01 T01970026  RH  032%=      5-min Rain = 0
KSE2 051945Z 33013KT 20/03 A3004 RMK A01 T01970027  RH  032%=      5-min Rain = 0
KSE2 051946Z 32015KT 20/03 A3004 RMK A01 T01970029  RH  033%=      5-min Rain = 0
KSE2 051947Z 32020KT 20/03 A3004 RMK A01 T01980029  RH  033%=      5-min Rain = 0
KSE2 051948Z 32017G25KT 20/03 A3004 RMK A01 T01980029  RH  033%=      5-min Rain = 0
KSE2 051949Z 32016G22KT 20/03 A3004 RMK A01 T01970031  RH  033%=      5-min Rain = 0
KSE2 051950Z 32014KT 20/03 A3003 RMK A01 T01980031  RH  033%=      5-min Rain = 0
KSE2 051951Z 31014G20KT 20/03 A3003 RMK A01 T02000031  RH  033%=      5-min Rain = 0
KSE2 051952Z 31019G25KT 20/03 A3003 RMK A01 T02010027  RH  032%=      5-min Rain = 0
KSE2 051953Z 32017G24KT 20/03 A3003 RMK A01 T02010028  RH  032%=      5-min Rain = 0
KSE2 051954Z 32013KT 20/03 A3003 RMK A01 T02030026  RH  031%=      5-min Rain = 0
KSE2 051955Z 33015G21KT 20/03 A3004 RMK A01 T02040027  RH  031%=      5-min Rain = 0
KSE2 051956Z 33017G22KT 20/03 A3004 RMK A01 T02040027  RH  031%=      5-min Rain = 0
KSE2 051957Z 33019G24KT 20/03 A3004 RMK A01 T02010026  RH  031%=      5-min Rain = 0
KSE2 051958Z 34014KT 20/03 A3004 RMK A01 T02000029  RH  032%=      5-min Rain = 0
KSE2 051959Z 34012KT 20/03 A3004 RMK A01 T02000029  RH  032%=      5-min Rain = 0
KSE2 052000Z 34012KT 20/03 A3004 RMK A01 T02020031  RH  032%=      5-min Rain = 0
KSE2 052001Z 33012G18KT 20/03 A3003 RMK A01 T02020029  RH  032%=      5-min Rain = 0
KSE2 052002Z 33012KT 20/03 A3003 RMK A01 T02020030  RH  032%=      5-min Rain = 0
KSE2 052003Z 33014KT 20/03 A3003 RMK A01 T02010032  RH  033%=      5-min Rain = 0
KSE2 052004Z 32014G20KT 20/03 A3003 RMK A01 T02020031  RH  032%=      5-min Rain = 0
KSE2 052005Z 32014KT 20/03 A3003 RMK A01 T02020031  RH  032%=      5-min Rain = 0
KSE2 052006Z 33014G19KT 20/03 A3004 RMK A01 T02010030  RH  032%=      5-min Rain = 0
KSE2 052007Z 33012KT 20/03 A3003 RMK A01 T01990030  RH  033%=      5-min Rain = 0
KSE2 052008Z 34012G19KT 20/03 A3003 RMK A01 T01990032  RH  033%=      5-min Rain = 0
KSE2 052009Z 33015KT 20/03 A3003 RMK A01 T02020034  RH  033%=      5-min Rain = 0
KSE2 052010Z 33013G18KT 21/04 A3003 RMK A01 T02050035  RH  033%=      5-min Rain = 0
KSE2 052011Z 33014G19KT 21/03 A3003 RMK A01 T02070032  RH  032%=      5-min Rain = 0
KSE2 052012Z 34013KT 21/03 A3003 RMK A01 T02060031  RH  032%=      5-min Rain = 0
KSE2 052013Z 34014KT 20/03 A3003 RMK A01 T02030031  RH  032%=      5-min Rain = 0
KSE2 052014Z 33015KT 20/03 A3003 RMK A01 T02030031  RH  032%=      5-min Rain = 0
KSE2 052015Z 32013KT 20/03 A3003 RMK A01 T02040033  RH  032%=      5-min Rain = 0
KSE2 052016Z 33015KT 21/03 A3003 RMK A01 T02050032  RH  032%=      5-min Rain = 0
KSE2 052017Z 33016G22KT 21/03 A3003 RMK A01 T02070034  RH  032%=      5-min Rain = 0
KSE2 052018Z 34012G18KT 21/03 A3003 RMK A01 T02080032  RH  031%=      5-min Rain = 0
KSE2 052019Z 34014KT 21/03 A3003 RMK A01 T02080031  RH  031%=      5-min Rain = 0
KSE2 052020Z 35012G18KT 21/03 A3003 RMK A01 T02080033  RH  031%=      5-min Rain = 0
KSE2 052021Z 35014KT 21/03 A3003 RMK A01 T02070030  RH  031%=      5-min Rain = 0
KSE2 052022Z 34014KT 20/03 A3003 RMK A01 T02040030  RH  032%=      5-min Rain = 0
KSE2 052023Z 35012G18KT 20/03 A3003 RMK A01 T02040032  RH  032%=      5-min Rain = 0
KSE2 052024Z 35011G17KT 21/03 A3003 RMK A01 T02050033  RH  032%=      5-min Rain = 0
KSE2 052025Z 35013G19KT 21/03 A3003 RMK A01 T02070034  RH  032%=      5-min Rain = 0
KSE2 052026Z 36015KT 21/03 A3003 RMK A01 T02090033  RH  031%=      5-min Rain = 0
KSE2 052027Z 34010G15KT 21/03 A3003 RMK A01 T02090030  RH  031%=      5-min Rain = 0
KSE2 052028Z 33011G16KT 21/03 A3003 RMK A01 T02080032  RH  031%=      5-min Rain = 0
KSE2 052029Z 32010KT 21/03 A3004 RMK A01 T02090033  RH  031%=      5-min Rain = 0
KSE2 052030Z 31008G15KT 21/03 A3003 RMK A01 T02120033  RH  031%=      5-min Rain = 0
KSE2 052031Z 31016G21KT 21/03 A3003 RMK A01 T02120032  RH  030%=      5-min Rain = 0
KSE2 052032Z 32015KT 21/03 A3004 RMK A01 T02100029  RH  030%=      5-min Rain = 0
KSE2 052033Z 32015G20KT 21/03 A3004 RMK A01 T02060029  RH  031%=      5-min Rain = 0
KSE2 052034Z 32010KT 21/03 A3004 RMK A01 T02060032  RH  032%=      5-min Rain = 0
KSE2 052035Z 33011G16KT 21/04 A3004 RMK A01 T02080035  RH  032%=      5-min Rain = 0
KSE2 052036Z 33014KT 21/03 A3003 RMK A01 T02100033  RH  031%=      5-min Rain = 0
KSE2 052037Z 32015G22KT 21/03 A3003 RMK A01 T02090032  RH  031%=      5-min Rain = 0
KSE2 052038Z 33010G15KT 21/03 A3003 RMK A01 T02080032  RH  031%=      5-min Rain = 0
KSE2 052039Z 34011G16KT 21/03 A3003 RMK A01 T02100034  RH  031%=      5-min Rain = 0
KSE2 052040Z 34014KT 21/03 A3003 RMK A01 T02110031  RH  030%=      5-min Rain = 0
KSE2 052041Z 33019KT 21/03 A3003 RMK A01 T02100030  RH  030%=      5-min Rain = 0
KSE2 052042Z 33018KT 21/03 A3004 RMK A01 T02090027  RH  030%=      5-min Rain = 0
KSE2 052043Z 34012G19KT 21/03 A3004 RMK A01 T02060026  RH  030%=      5-min Rain = 0
KSE2 052044Z 34013KT 21/03 A3003 RMK A01 T02060030  RH  031%=      5-min Rain = 0
KSE2 052045Z 34010KT 21/03 A3003 RMK A01 T02080029  RH  031%=      5-min Rain = 0
KSE2 052046Z 33014KT 21/03 A3004 RMK A01 T02080029  RH  031%=      5-min Rain = 0
KSE2 052047Z 32017G22KT 21/03 A3003 RMK A01 T02070025  RH  030%=      5-min Rain = 0
KSE2 052048Z 33012G19KT 21/03 A3003 RMK A01 T02050027  RH  031%=      5-min Rain = 0
KSE2 052049Z 33013G22KT 21/03 A3003 RMK A01 T02050029  RH  031%=      5-min Rain = 0
KSE2 052050Z 34019G25KT 21/03 A3004 RMK A01 T02070030  RH  031%=      5-min Rain = 0
KSE2 052051Z 35020G26KT 21/03 A3004 RMK A01 T02050029  RH  031%=      5-min Rain = 0
KSE2 052052Z 34018KT 20/03 A3004 RMK A01 T02040031  RH  032%=      5-min Rain = 0
KSE2 052053Z 34017G23KT 20/03 A3004 RMK A01 T02040030  RH  032%=      5-min Rain = 0
KSE2 052054Z 35013KT 20/03 A3004 RMK A01 T02030030  RH  032%=      5-min Rain = 0
KSE2 052055Z 34011KT 20/03 A3004 RMK A01 T02020030  RH  032%=      5-min Rain = 0
KSE2 052056Z 33009KT 20/03 A3004 RMK A01 T02040033  RH  032%=      5-min Rain = 0
KSE2 052057Z 33012KT 21/03 A3004 RMK A01 T02060033  RH  032%=      5-min Rain = 0
KSE2 052058Z 34015KT 21/03 A3004 RMK A01 T02080034  RH  032%=      5-min Rain = 0
KSE2 052059Z 33015KT 21/03 A3004 RMK A01 T02090033  RH  031%=      5-min Rain = 0
KSE2 052100Z 32017G22KT 21/03 A3004 RMK A01 T02080032  RH  031%=      5-min Rain = 0
KSE2 052101Z 33015G23KT 21/03 A3004 RMK A01 T02070031  RH  031%=      5-min Rain = 0
KSE2 052102Z 33014G22KT 21/03 A3004 RMK A01 T02060031  RH  032%=      5-min Rain = 0
KSE2 052103Z 32011KT 21/03 A3004 RMK A01 T02060033  RH  032%=      5-min Rain = 0
KSE2 052104Z 32015G20KT 21/03 A3004 RMK A01 T02080034  RH  032%=      5-min Rain = 0
KSE2 052105Z 32010KT 21/03 A3004 RMK A01 T02080033  RH  032%=      5-min Rain = 0
KSE2 052106Z 33012G20KT 21/03 A3004 RMK A01 T02070034  RH  032%=      5-min Rain = 0
KSE2 052107Z 33010G15KT 21/04 A3004 RMK A01 T02090036  RH  032%=      5-min Rain = 0
KSE2 052108Z 33015G21KT 21/03 A3004 RMK A01 T02100034  RH  031%=      5-min Rain = 0
KSE2 052109Z 32015KT 21/03 A3003 RMK A01 T02100034  RH  031%=      5-min Rain = 0
KSE2 052110Z 33010G15KT 21/03 A3004 RMK A01 T02080034  RH  032%=      5-min Rain = 0
KSE2 052111Z 33012G17KT 21/04 A3003 RMK A01 T02100035  RH  031%=      5-min Rain = 0
KSE2 052112Z 32014KT 21/03 A3003 RMK A01 T02100034  RH  031%=      5-min Rain = 0
KSE2 052113Z 33013KT 21/04 A3004 RMK A01 T02110035  RH  031%=      5-min Rain = 0
KSE2 052114Z 32013G19KT 21/03 A3003 RMK A01 T02120034  RH  031%=      5-min Rain = 0
KSE2 052115Z 32012G20KT 21/03 A3003 RMK A01 T02110033  RH  031%=      5-min Rain = 0
KSE2 052116Z 34017KT 21/03 A3004 RMK A01 T02110034  RH  031%=      5-min Rain = 0
KSE2 052117Z 34015G21KT 21/03 A3004 RMK A01 T02110033  RH  031%=      5-min Rain = 0
KSE2 052118Z 34018G26KT 21/03 A3004 RMK A01 T02100031  RH  031%=      5-min Rain = 0
KSE2 052119Z 34021G26KT 21/03 A3004 RMK A01 T02080028  RH  030%=      5-min Rain = 0
KSE2 052120Z 34016G21KT 21/03 A3004 RMK A01 T02070028  RH  031%=      5-min Rain = 0
KSE2 052121Z 34016G23KT 21/03 A3004 RMK A01 T02060028  RH  031%=      5-min Rain = 0
KSE2 052122Z 34014KT 21/03 A3004 RMK A01 T02060028  RH  031%=      5-min Rain = 0
KSE2 052123Z 35013KT 21/03 A3004 RMK A01 T02060030  RH  031%=      5-min Rain = 0
KSE2 052124Z 33015KT 21/03 A3004 RMK A01 T02070030  RH  031%=      5-min Rain = 0
KSE2 052125Z 33014G19KT 21/03 A3004 RMK A01 T02070030  RH  031%=      5-min Rain = 0
KSE2 052126Z 33012KT 21/03 A3004 RMK A01 T02070032  RH  031%=      5-min Rain = 0
KSE2 052127Z 35013G19KT 21/04 A3004 RMK A01 T02100035  RH  032%=      5-min Rain = 0
KSE2 052128Z 34014G19KT 21/03 A3004 RMK A01 T02120033  RH  031%=      5-min Rain = 0
KSE2 052129Z 35016KT 21/03 A3004 RMK A01 T02110031  RH  030%=      5-min Rain = 0
KSE2 052130Z 36014KT 21/03 A3004 RMK A01 T02100032  RH  031%=      5-min Rain = 0
KSE2 052131Z 35012G17KT 21/03 A3004 RMK A01 T02090032  RH  031%=      5-min Rain = 0
KSE2 052132Z 34012KT 21/03 A3004 RMK A01 T02100031  RH  031%=      5-min Rain = 0
KSE2 052133Z 32013G22KT 21/03 A3004 RMK A01 T02100033  RH  031%=      5-min Rain = 0
KSE2 052134Z 33012G18KT 21/03 A3004 RMK A01 T02100033  RH  031%=      5-min Rain = 0
KSE2 052135Z 33015G21KT 21/04 A3004 RMK A01 T02100037  RH  032%=      5-min Rain = 0
KSE2 052136Z 33015KT 21/03 A3004 RMK A01 T02120034  RH  031%=      5-min Rain = 0
KSE2 052137Z 33014KT 21/03 A3004 RMK A01 T02110034  RH  031%=      5-min Rain = 0
KSE2 052138Z 33013KT 21/04 A3004 RMK A01 T02110035  RH  031%=      5-min Rain = 0
KSE2 052139Z 33014KT 21/03 A3004 RMK A01 T02110034  RH  031%=      5-min Rain = 0
KSE2 052140Z 32013G19KT 21/03 A3004 RMK A01 T02100034  RH  031%=      5-min Rain = 0
KSE2 052141Z 32015G20KT 21/03 A3004 RMK A01 T02100033  RH  031%=      5-min Rain = 0
KSE2 052142Z 33013KT 21/03 A3004 RMK A01 T02090032  RH  031%=      5-min Rain = 0
KSE2 052143Z 34010G16KT 21/03 A3004 RMK A01 T02090032  RH  031%=      5-min Rain = 0
KSE2 052144Z 33010G18KT 21/04 A3004 RMK A01 T02110035  RH  031%=      5-min Rain = 0
KSE2 052145Z 34016G21KT 21/03 A3004 RMK A01 T02130032  RH  030%=      5-min Rain = 0
KSE2 052146Z 33014G19KT 21/03 A3004 RMK A01 T02140031  RH  030%=      5-min Rain = 0
KSE2 052147Z 35013G18KT 21/03 A3004 RMK A01 T02140031  RH  030%=      5-min Rain = 0
KSE2 052148Z 34014G20KT 21/03 A3004 RMK A01 T02140031  RH  030%=      5-min Rain = 0
KSE2 052149Z 33015KT 21/03 A3004 RMK A01 T02130030  RH  030%=      5-min Rain = 0
KSE2 052150Z 32014G19KT 21/03 A3004 RMK A01 T02100029  RH  030%=      5-min Rain = 0
KSE2 052151Z 33012G17KT 21/03 A3004 RMK A01 T02080029  RH  031%=      5-min Rain = 0
KSE2 052152Z 34011G16KT 21/03 A3004 RMK A01 T02070030  RH  031%=      5-min Rain = 0
KSE2 052153Z 33011G16KT 21/03 A3004 RMK A01 T02090033  RH  031%=      5-min Rain = 0
KSE2 052154Z 33013G19KT 21/03 A3004 RMK A01 T02110034  RH  031%=      5-min Rain = 0
KSE2 052155Z 33013KT 21/03 A3004 RMK A01 T02120032  RH  031%=      5-min Rain = 0
KSE2 052156Z 34013KT 21/03 A3004 RMK A01 T02110031  RH  031%=      5-min Rain = 0
KSE2 052157Z 34012KT 21/03 A3004 RMK A01 T02110031  RH  031%=      5-min Rain = 0
KSE2 052158Z 34015G22KT 21/03 A3004 RMK A01 T02100031  RH  031%=      5-min Rain = 0
KSE2 052159Z 33016KT 21/03 A3004 RMK A01 T02100030  RH  031%=      5-min Rain = 0
KSE2 052200Z 33014KT 21/03 A3005 RMK A01 T02100029  RH  030%=      5-min Rain = 0
KSE2 052201Z 34016KT 21/03 A3004 RMK A01 T02100027  RH  030%=      5-min Rain = 0
KSE2 052202Z 34013G18KT 21/03 A3004 RMK A01 T02090026  RH  030%=      5-min Rain = 0
KSE2 052203Z 33009KT 21/03 A3004 RMK A01 T02080029  RH  031%=      5-min Rain = 0
KSE2 052204Z 33015KT 21/03 A3004 RMK A01 T02110030  RH  030%=      5-min Rain = 0
KSE2 052205Z 33016G21KT 21/03 A3004 RMK A01 T02120028  RH  030%=      5-min Rain = 0
KSE2 052206Z 34016G21KT 21/03 A3004 RMK A01 T02120028  RH  030%=      5-min Rain = 0
KSE2 052207Z 33014G21KT 21/03 A3004 RMK A01 T02100031  RH  031%=      5-min Rain = 0
KSE2 052208Z 33015KT 21/03 A3004 RMK A01 T02100031  RH  031%=      5-min Rain = 0
KSE2 052209Z 33012G18KT 21/03 A3004 RMK A01 T02080032  RH  031%=      5-min Rain = 0
KSE2 052210Z 33013KT 21/03 A3004 RMK A01 T02080034  RH  032%=      5-min Rain = 0
KSE2 052211Z 33014G22KT 21/04 A3004 RMK A01 T02100036  RH  032%=      5-min Rain = 0
KSE2 052212Z 33016KT 21/04 A3005 RMK A01 T02100035  RH  031%=      5-min Rain = 0
KSE2 052213Z 33015KT 21/03 A3005 RMK A01 T02080033  RH  032%=      5-min Rain = 0
KSE2 052214Z 34014KT 21/03 A3004 RMK A01 T02060034  RH  032%=      5-min Rain = 0
KSE2 052215Z 35010G17KT 21/04 A3005 RMK A01 T02070036  RH  032%=      5-min Rain = 0
KSE2 052216Z 35010G15KT 21/04 A3005 RMK A01 T02090035  RH  032%=      5-min Rain = 0
KSE2 052217Z 35017KT 21/03 A3005 RMK A01 T02100033  RH  031%=      5-min Rain = 0
KSE2 052218Z 34014KT 21/03 A3005 RMK A01 T02090029  RH  030%=      5-min Rain = 0
KSE2 052219Z 34014G21KT 21/03 A3005 RMK A01 T02080032  RH  031%=      5-min Rain = 0
KSE2 052220Z 34015G20KT 21/03 A3005 RMK A01 T02090029  RH  031%=      5-min Rain = 0
KSE2 052221Z 34013KT 21/03 A3005 RMK A01 T02080030  RH  031%=      5-min Rain = 0
KSE2 052222Z 33014KT 21/03 A3005 RMK A01 T02080032  RH  031%=      5-min Rain = 0
KSE2 052223Z 34012KT 21/03 A3005 RMK A01 T02080032  RH  031%=      5-min Rain = 0
KSE2 052224Z 35011KT 21/03 A3005 RMK A01 T02090034  RH  032%=      5-min Rain = 0
KSE2 052225Z 34013KT 21/03 A3005 RMK A01 T02100034  RH  031%=      5-min Rain = 0
KSE2 052226Z 34015KT 21/03 A3005 RMK A01 T02090034  RH  032%=      5-min Rain = 0
KSE2 052227Z 34018G25KT 21/03 A3005 RMK A01 T02070033  RH  032%=      5-min Rain = 0
KSE2 052228Z 35017KT 21/03 A3005 RMK A01 T02050032  RH  032%=      5-min Rain = 0
KSE2 052229Z 35015KT 20/03 A3005 RMK A01 T02030032  RH  032%=      5-min Rain = 0
KSE2 052230Z 35010KT 20/04 A3005 RMK A01 T02020035  RH  033%=      5-min Rain = 0
KSE2 052231Z 35011KT 20/04 A3005 RMK A01 T02030037  RH  033%=      5-min Rain = 0
KSE2 052232Z 35014KT 21/04 A3005 RMK A01 T02050037  RH  033%=      5-min Rain = 0
KSE2 052233Z 35009KT 20/04 A3005 RMK A01 T02040038  RH  033%=      5-min Rain = 0
KSE2 052234Z 35008KT 21/04 A3005 RMK A01 T02060039  RH  033%=      5-min Rain = 0
KSE2 052235Z 35015G21KT 21/04 A3005 RMK A01 T02080038  RH  033%=      5-min Rain = 0
KSE2 052236Z 35015KT 21/03 A3005 RMK A01 T02080033  RH  032%=      5-min Rain = 0
KSE2 052237Z 34012G17KT 21/03 A3005 RMK A01 T02070033  RH  032%=      5-min Rain = 0
KSE2 052238Z 35013KT 21/04 A3005 RMK A01 T02060036  RH  033%=      5-min Rain = 0
KSE2 052239Z 34012G17KT 21/04 A3005 RMK A01 T02060038  RH  033%=      5-min Rain = 0
KSE2 052240Z 33016G23KT 21/04 A3005 RMK A01 T02070038  RH  033%=      5-min Rain = 0
KSE2 052241Z 35012KT 21/04 A3005 RMK A01 T02060038  RH  033%=      5-min Rain = 0
KSE2 052242Z 35011G18KT 21/04 A3005 RMK A01 T02050038  RH  033%=      5-min Rain = 0
KSE2 052243Z 34015G21KT 21/04 A3005 RMK A01 T02060039  RH  033%=      5-min Rain = 0
KSE2 052244Z 34016G23KT 21/04 A3005 RMK A01 T02050038  RH  033%=      5-min Rain = 0
KSE2 052245Z 34017G23KT 20/04 A3005 RMK A01 T02040038  RH  033%=      5-min Rain = 0
KSE2 052246Z 34015G20KT 20/04 A3005 RMK A01 T02020038  RH  034%=      5-min Rain = 0
KSE2 052247Z 33016G21KT 20/04 A3005 RMK A01 T02010037  RH  034%=      5-min Rain = 0
KSE2 052248Z 33013KT 20/04 A3005 RMK A01 T02010038  RH  034%=      5-min Rain = 0
KSE2 052249Z 34010G15KT 20/04 A3005 RMK A01 T02010038  RH  034%=      5-min Rain = 0
KSE2 052250Z 33014G19KT 20/04 A3005 RMK A01 T02020038  RH  034%=      5-min Rain = 0
KSE2 052251Z 34017KT 20/04 A3005 RMK A01 T02020037  RH  034%=      5-min Rain = 0
KSE2 052252Z 34014G19KT 20/04 A3005 RMK A01 T02010037  RH  034%=      5-min Rain = 0
KSE2 052253Z 34015KT 20/04 A3005 RMK A01 T02010037  RH  034%=      5-min Rain = 0
KSE2 052254Z 34013G18KT 20/04 A3005 RMK A01 T02000037  RH  034%=      5-min Rain = 0
KSE2 052255Z 36012G18KT 20/04 A3005 RMK A01 T02000038  RH  034%=      5-min Rain = 0
KSE2 052256Z 36012G17KT 20/04 A3005 RMK A01 T02010037  RH  034%=      5-min Rain = 0
KSE2 052257Z 35012G17KT 20/04 A3005 RMK A01 T02020037  RH  034%=      5-min Rain = 0
KSE2 052258Z 35013G21KT 20/04 A3005 RMK A01 T02020038  RH  034%=      5-min Rain = 0
KSE2 052259Z 35015KT 20/04 A3005 RMK A01 T02020038  RH  034%=      5-min Rain = 0
KSE2 052300Z 36010KT 20/04 A3005 RMK A01 T02010039  RH  034%=      5-min Rain = 0
KSE2 052301Z 35011KT 20/04 A3005 RMK A01 T02010040  RH  034%=      5-min Rain = 0
KSE2 052302Z 35011KT 20/04 A3005 RMK A01 T02010040  RH  034%=      5-min Rain = 0
KSE2 052303Z 36014G19KT 20/04 A3005 RMK A01 T02010039  RH  034%=      5-min Rain = 0
KSE2 052304Z 35014KT 20/04 A3005 RMK A01 T02010038  RH  034%=      5-min Rain = 0
KSE2 052305Z 35015KT 20/04 A3005 RMK A01 T02000038  RH  034%=      5-min Rain = 0
KSE2 052306Z 35016G22KT 20/04 A3006 RMK A01 T02000039  RH  034%=      5-min Rain = 0
KSE2 052307Z 35014KT 20/04 A3006 RMK A01 T02000038  RH  034%=      5-min Rain = 0
KSE2 052308Z 36013KT 20/04 A3005 RMK A01 T01990038  RH  034%=      5-min Rain = 0
KSE2 052309Z 36014G19KT 20/04 A3006 RMK A01 T01990037  RH  034%=      5-min Rain = 0
KSE2 052310Z 36016KT 20/04 A3006 RMK A01 T01990037  RH  034%=      5-min Rain = 0
KSE2 052311Z 00018G24KT 20/04 A3006 RMK A01 T01980037  RH  034%=      5-min Rain = 0
KSE2 052312Z 35012G18KT 20/04 A3006 RMK A01 T01980038  RH  035%=      5-min Rain = 0
KSE2 052313Z 35014G19KT 20/04 A3006 RMK A01 T01980039  RH  035%=      5-min Rain = 0
KSE2 052314Z 35014KT 20/04 A3006 RMK A01 T01980038  RH  035%=      5-min Rain = 0
KSE2 052315Z 36012G20KT 20/04 A3006 RMK A01 T01970038  RH  035%=      5-min Rain = 0
KSE2 052316Z 00014G19KT 20/04 A3006 RMK A01 T01970037  RH  035%=      5-min Rain = 0
KSE2 052317Z 00018G23KT 20/04 A3006 RMK A01 T01960038  RH  035%=      5-min Rain = 0
KSE2 052318Z 00015KT 20/04 A3006 RMK A01 T01960038  RH  035%=      5-min Rain = 0
KSE2 052319Z 35015KT 20/04 A3006 RMK A01 T01960039  RH  036%=      5-min Rain = 0
KSE2 052320Z 35019G24KT 20/04 A3006 RMK A01 T01970040  RH  035%=      5-min Rain = 0
KSE2 052321Z 35014G19KT 20/04 A3006 RMK A01 T01960039  RH  035%=      5-min Rain = 0
KSE2 052322Z 34013KT 20/04 A3006 RMK A01 T01950039  RH  036%=      5-min Rain = 0
KSE2 052323Z 35013KT 20/04 A3006 RMK A01 T01950040  RH  036%=      5-min Rain = 0
KSE2 052324Z 35014KT 20/04 A3006 RMK A01 T01950039  RH  036%=      5-min Rain = 0
KSE2 052325Z 35014G19KT 20/04 A3006 RMK A01 T01950040  RH  036%=      5-min Rain = 0
KSE2 052326Z 34015KT 19/04 A3007 RMK A01 T01940039  RH  036%=      5-min Rain = 0
KSE2 052327Z 34013KT 19/04 A3007 RMK A01 T01940039  RH  036%=      5-min Rain = 0
KSE2 052328Z 35013G18KT 19/04 A3007 RMK A01 T01930039  RH  036%=      5-min Rain = 0
KSE2 052329Z 34015G20KT 19/04 A3007 RMK A01 T01930039  RH  036%=      5-min Rain = 0
KSE2 052330Z 36012KT 19/04 A3007 RMK A01 T01930039  RH  036%=      5-min Rain = 0
KSE2 052331Z 35010KT 19/04 A3007 RMK A01 T01940040  RH  036%=      5-min Rain = 0
KSE2 052332Z 36018G23KT 19/04 A3007 RMK A01 T01940040  RH  036%=      5-min Rain = 0
KSE2 052333Z 34016G21KT 19/04 A3007 RMK A01 T01940040  RH  036%=      5-min Rain = 0
KSE2 052334Z 35014KT 19/04 A3007 RMK A01 T01940039  RH  036%=      5-min Rain = 0
KSE2 052335Z 35014KT 19/04 A3007 RMK A01 T01930039  RH  036%=      5-min Rain = 0
KSE2 052336Z 35012KT 19/04 A3007 RMK A01 T01930039  RH  036%=      5-min Rain = 0
KSE2 052337Z 35013KT 19/04 A3007 RMK A01 T01930040  RH  036%=      5-min Rain = 0
KSE2 052338Z 00014G20KT 19/04 A3007 RMK A01 T01930042  RH  037%=      5-min Rain = 0
KSE2 052339Z 00014G20KT 19/04 A3007 RMK A01 T01910043  RH  038%=      5-min Rain = 0
KSE2 052340Z 36015KT 19/04 A3007 RMK A01 T01900043  RH  038%=      5-min Rain = 0
KSE2 052341Z 35015G20KT 19/04 A3007 RMK A01 T01890044  RH  038%=      5-min Rain = 0
KSE2 052342Z 36016G21KT 19/04 A3007 RMK A01 T01880044  RH  039%=      5-min Rain = 0
KSE2 052343Z 36015KT 19/04 A3008 RMK A01 T01870044  RH  039%=      5-min Rain = 0
KSE2 052344Z 35014G21KT 19/05 A3008 RMK A01 T01870045  RH  039%=      5-min Rain = 0
KSE2 052345Z 35013G18KT 19/05 A3008 RMK A01 T01860045  RH  039%=      5-min Rain = 0
KSE2 052346Z 35013G20KT 19/05 A3008 RMK A01 T01860045  RH  039%=      5-min Rain = 0
KSE2 052347Z 35013KT 18/05 A3008 RMK A01 T01840045  RH  040%=      5-min Rain = 0
KSE2 052348Z 35012KT 18/05 A3008 RMK A01 T01840046  RH  040%=      5-min Rain = 0
KSE2 052349Z 35012KT 18/05 A3008 RMK A01 T01840046  RH  040%=      5-min Rain = 0
KSE2 052350Z 35016KT 18/05 A3008 RMK A01 T01840046  RH  040%=      5-min Rain = 0
KSE2 052351Z 34014G19KT 18/05 A3008 RMK A01 T01840046  RH  040%=      5-min Rain = 0
KSE2 052352Z 34015KT 18/05 A3008 RMK A01 T01840046  RH  040%=      5-min Rain = 0
KSE2 052353Z 35013G21KT 18/05 A3008 RMK A01 T01830046  RH  040%=      5-min Rain = 0
KSE2 052354Z 36016G22KT 18/05 A3008 RMK A01 T01830047  RH  040%=      5-min Rain = 0
KSE2 052355Z 36014G19KT 18/05 A3008 RMK A01 T01830046  RH  040%=      5-min Rain = 0
KSE2 052356Z 00016G21KT 18/05 A3008 RMK A01 T01830046  RH  040%=      5-min Rain = 0
KSE2 052357Z 35015KT 18/05 A3009 RMK A01 T01830047  RH  041%=      5-min Rain = 0
KSE2 052358Z 35015KT 18/05 A3009 RMK A01 T01830047  RH  041%=      5-min Rain = 0
KSE2 052359Z 35010KT 18/05 A3009 RMK A01 T01820047  RH  041%=      5-min Rain = 0
KSE2 060000Z 36017G25KT 18/05 A3009 RMK A01 T01820048  RH  041%=      5-min Rain = 0
KSE2 060001Z 35014KT 18/05 A3009 RMK A01 T01820047  RH  041%=      5-min Rain = 0
KSE2 060002Z 35014G19KT 18/05 A3009 RMK A01 T01810047  RH  041%=      5-min Rain = 0
KSE2 060003Z 35012G17KT 18/05 A3009 RMK A01 T01800048  RH  042%=      5-min Rain = 0
KSE2 060004Z 35013G19KT 18/05 A3009 RMK A01 T01790048  RH  042%=      5-min Rain = 0
KSE2 060005Z 35014G20KT 18/05 A3009 RMK A01 T01780048  RH  042%=      5-min Rain = 0
KSE2 060006Z 35013KT 18/05 A3009 RMK A01 T01770048  RH  043%=      5-min Rain = 0
KSE2 060007Z 35012KT 18/05 A301 RMK A01 T01750048  RH  043%=      5-min Rain = 0
KSE2 060008Z 35010KT 18/05 A301 RMK A01 T01750048  RH  043%=      5-min Rain = 0
KSE2 060009Z 35015KT 17/05 A301 RMK A01 T01740048  RH  043%=      5-min Rain = 0
KSE2 060010Z 35012KT 17/05 A301 RMK A01 T01740048  RH  043%=      5-min Rain = 0
KSE2 060011Z 00012KT 17/05 A301 RMK A01 T01730048  RH  044%=      5-min Rain = 0
KSE2 060012Z 36013KT 17/05 A301 RMK A01 T01730048  RH  044%=      5-min Rain = 0
KSE2 060013Z 36015KT 17/05 A301 RMK A01 T01720048  RH  044%=      5-min Rain = 0
KSE2 060014Z 35013KT 17/05 A301 RMK A01 T01710048  RH  044%=      5-min Rain = 0
KSE2 060015Z 36014G19KT 17/05 A301 RMK A01 T01710048  RH  044%=      5-min Rain = 0
KSE2 060016Z 35013KT 17/05 A301 RMK A01 T01700048  RH  044%=      5-min Rain = 0
KSE2 060017Z 35012G17KT 17/05 A301 RMK A01 T01700048  RH  044%=      5-min Rain = 0
KSE2 060018Z 35010KT 17/05 A301 RMK A01 T01700047  RH  044%=      5-min Rain = 0
KSE2 060019Z 00015KT 17/05 A301 RMK A01 T01690047  RH  044%=      5-min Rain = 0
KSE2 060020Z 01015G20KT 17/05 A301 RMK A01 T01690047  RH  044%=      5-min Rain = 0
KSE2 060021Z 36011KT 17/05 A301 RMK A01 T01690047  RH  044%=      5-min Rain = 0
KSE2 060022Z 36011KT 17/05 A301 RMK A01 T01680047  RH  045%=      5-min Rain = 0
KSE2 060023Z 35014KT 17/05 A301 RMK A01 T01670047  RH  045%=      5-min Rain = 0
KSE2 060024Z 35016KT 17/05 A301 RMK A01 T01670047  RH  045%=      5-min Rain = 0
KSE2 060025Z 35014KT 17/05 A301 RMK A01 T01670047  RH  045%=      5-min Rain = 0
KSE2 060026Z 36014KT 17/05 A301 RMK A01 T01670047  RH  045%=      5-min Rain = 0
KSE2 060027Z 35013G18KT 17/05 A301 RMK A01 T01670047  RH  045%=      5-min Rain = 0
KSE2 060028Z 35011G21KT 17/05 A301 RMK A01 T01660047  RH  045%=      5-min Rain = 0
KSE2 060029Z 35011KT 17/05 A301 RMK A01 T01660047  RH  045%=      5-min Rain = 0
KSE2 060030Z 35012KT 17/05 A301 RMK A01 T01650046  RH  045%=      5-min Rain = 0
KSE2 060031Z 35012KT 16/05 A3011 RMK A01 T01640047  RH  046%=      5-min Rain = 0
KSE2 060032Z 35011G18KT 16/05 A3011 RMK A01 T01640047  RH  046%=      5-min Rain = 0
KSE2 060033Z 35011G16KT 16/05 A3011 RMK A01 T01630047  RH  046%=      5-min Rain = 0
KSE2 060034Z 35016G22KT 16/05 A3011 RMK A01 T01630047  RH  046%=      5-min Rain = 0
KSE2 060035Z 35017G24KT 16/05 A3011 RMK A01 T01630047  RH  046%=      5-min Rain = 0
KSE2 060036Z 36015G20KT 16/05 A3011 RMK A01 T01620047  RH  046%=      5-min Rain = 0
KSE2 060037Z 35018G23KT 16/05 A3011 RMK A01 T01620047  RH  046%=      5-min Rain = 0
KSE2 060038Z 35013G18KT 16/05 A3011 RMK A01 T01610047  RH  046%=      5-min Rain = 0
KSE2 060039Z 35015G22KT 16/05 A3011 RMK A01 T01600047  RH  047%=      5-min Rain = 0
KSE2 060040Z 35014G19KT 16/05 A3011 RMK A01 T01600046  RH  047%=      5-min Rain = 0
KSE2 060041Z 35015G21KT 16/05 A3011 RMK A01 T01590047  RH  047%=      5-min Rain = 0
KSE2 060042Z 36017G22KT 16/05 A3012 RMK A01 T01590047  RH  047%=      5-min Rain = 0
KSE2 060043Z 36013G19KT 16/05 A3012 RMK A01 T01580047  RH  047%=      5-min Rain = 0
KSE2 060044Z 35016KT 16/05 A3012 RMK A01 T01580047  RH  048%=      5-min Rain = 0
KSE2 060045Z 36013G19KT 16/05 A3012 RMK A01 T01570047  RH  048%=      5-min Rain = 0
KSE2 060046Z 35013G18KT 16/05 A3012 RMK A01 T01570048  RH  048%=      5-min Rain = 0
KSE2 060047Z 35011G17KT 16/05 A3012 RMK A01 T01560047  RH  048%=      5-min Rain = 0
KSE2 060048Z 34013G23KT 16/05 A3012 RMK A01 T01560047  RH  048%=      5-min Rain = 0
KSE2 060049Z 34017KT 16/05 A3012 RMK A01 T01550047  RH  049%=      5-min Rain = 0
KSE2 060050Z 34016G22KT 16/05 A3012 RMK A01 T01550047  RH  049%=      5-min Rain = 0
KSE2 060051Z 34015G22KT 15/05 A3012 RMK A01 T01540047  RH  049%=      5-min Rain = 0
KSE2 060052Z 35014G20KT 15/05 A3012 RMK A01 T01530047  RH  049%=      5-min Rain = 0
KSE2 060053Z 34014KT 15/05 A3012 RMK A01 T01530047  RH  049%=      5-min Rain = 0
KSE2 060054Z 35013G18KT 15/05 A3012 RMK A01 T01530047  RH  049%=      5-min Rain = 0
KSE2 060055Z 35014G19KT 15/05 A3012 RMK A01 T01520047  RH  049%=      5-min Rain = 0
KSE2 060056Z 35015G22KT 15/05 A3013 RMK A01 T01520047  RH  049%=      5-min Rain = 0
KSE2 060057Z 35017KT 15/05 A3013 RMK A01 T01520047  RH  049%=      5-min Rain = 0
KSE2 060058Z 36014G19KT 15/05 A3013 RMK A01 T01520046  RH  049%=      5-min Rain = 0
KSE2 060059Z 35011G16KT 15/05 A3013 RMK A01 T01520046  RH  049%=      5-min Rain = 0
KSE2 060100Z 35014G19KT 15/05 A3013 RMK A01 T01510046  RH  050%=      5-min Rain = 0
KSE2 060101Z 35011G17KT 15/05 A3013 RMK A01 T01500046  RH  050%=      5-min Rain = 0
KSE2 060102Z 35011KT 15/05 A3013 RMK A01 T01500046  RH  050%=      5-min Rain = 0
KSE2 060103Z 36011KT 15/05 A3013 RMK A01 T01490046  RH  050%=      5-min Rain = 0
KSE2 060104Z 35013KT 15/05 A3013 RMK A01 T01490046  RH  050%=      5-min Rain = 0
KSE2 060105Z 35010KT 15/05 A3013 RMK A01 T01480046  RH  050%=      5-min Rain = 0
KSE2 060106Z 35012KT 15/05 A3013 RMK A01 T01480046  RH  050%=      5-min Rain = 0
KSE2 060107Z 35010KT 15/05 A3013 RMK A01 T01480046  RH  050%=      5-min Rain = 0
KSE2 060108Z 35011KT 15/05 A3013 RMK A01 T01480046  RH  050%=      5-min Rain = 0
KSE2 060109Z 35012KT 15/05 A3013 RMK A01 T01480046  RH  050%=      5-min Rain = 0
KSE2 060110Z 35012KT 15/05 A3014 RMK A01 T01480045  RH  050%=      5-min Rain = 0
KSE2 060111Z 35009KT 15/05 A3014 RMK A01 T01470045  RH  050%=      5-min Rain = 0
KSE2 060112Z 35012G21KT 15/05 A3014 RMK A01 T01470045  RH  051%=      5-min Rain = 0
KSE2 060113Z 36010KT 15/05 A3014 RMK A01 T01470046  RH  051%=      5-min Rain = 0
KSE2 060114Z 35009KT 15/05 A3014 RMK A01 T01460045  RH  051%=      5-min Rain = 0
KSE2 060115Z 35014KT 15/05 A3014 RMK A01 T01460045  RH  051%=      5-min Rain = 0
KSE2 060116Z 35014KT 15/04 A3014 RMK A01 T01450044  RH  051%=      5-min Rain = 0
KSE2 060117Z 36012G19KT 15/04 A3014 RMK A01 T01460044  RH  050%=      5-min Rain = 0
KSE2 060118Z 34016KT 15/04 A3014 RMK A01 T01460044  RH  050%=      5-min Rain = 0
KSE2 060119Z 35015KT 15/04 A3014 RMK A01 T01460044  RH  050%=      5-min Rain = 0
KSE2 060120Z 35013KT 15/04 A3014 RMK A01 T01460044  RH  050%=      5-min Rain = 0
KSE2 060121Z 35016KT 15/04 A3014 RMK A01 T01460044  RH  050%=      5-min Rain = 0
KSE2 060122Z 35013G19KT 15/04 A3014 RMK A01 T01460044  RH  050%=      5-min Rain = 0
KSE2 060123Z 35014G20KT 15/05 A3014 RMK A01 T01460045  RH  051%=      5-min Rain = 0
KSE2 060124Z 35016KT 15/05 A3014 RMK A01 T01460045  RH  051%=      5-min Rain = 0
KSE2 060125Z 35014G19KT 15/05 A3014 RMK A01 T01460045  RH  051%=      5-min Rain = 0
KSE2 060126Z 35015KT 15/05 A3014 RMK A01 T01450045  RH  051%=      5-min Rain = 0
KSE2 060127Z 35016KT 15/05 A3015 RMK A01 T01450046  RH  051%=      5-min Rain = 0
KSE2 060128Z 35011KT 15/05 A3015 RMK A01 T01450046  RH  051%=      5-min Rain = 0
KSE2 060129Z 35012G18KT 14/05 A3015 RMK A01 T01440046  RH  051%=      5-min Rain = 0
KSE2 060130Z 35013KT 14/05 A3015 RMK A01 T01440046  RH  052%=      5-min Rain = 0
KSE2 060131Z 34013KT 14/05 A3015 RMK A01 T01430046  RH  052%=      5-min Rain = 0
KSE2 060132Z 35012KT 14/05 A3015 RMK A01 T01430045  RH  052%=      5-min Rain = 0
KSE2 060133Z 35010G16KT 14/05 A3015 RMK A01 T01420045  RH  052%=      5-min Rain = 0
KSE2 060134Z 35013G18KT 14/05 A3015 RMK A01 T01420045  RH  052%=      5-min Rain = 0
KSE2 060135Z 35009KT 14/05 A3015 RMK A01 T01420046  RH  052%=      5-min Rain = 0
KSE2 060136Z 35012KT 14/05 A3015 RMK A01 T01410045  RH  052%=      5-min Rain = 0
KSE2 060137Z 35010KT 14/05 A3015 RMK A01 T01410046  RH  052%=      5-min Rain = 0
KSE2 060138Z 36011KT 14/05 A3015 RMK A01 T01410046  RH  053%=      5-min Rain = 0
KSE2 060139Z 35010G15KT 14/05 A3016 RMK A01 T01410046  RH  053%=      5-min Rain = 0
KSE2 060140Z 36010G16KT 14/05 A3016 RMK A01 T01400046  RH  053%=      5-min Rain = 0
KSE2 060141Z 35010KT 14/05 A3016 RMK A01 T01400046  RH  053%=      5-min Rain = 0
KSE2 060142Z 35010G16KT 14/05 A3016 RMK A01 T01390046  RH  053%=      5-min Rain = 0
KSE2 060143Z 35010G15KT 14/05 A3016 RMK A01 T01390046  RH  054%=      5-min Rain = 0
KSE2 060144Z 35010G16KT 14/05 A3016 RMK A01 T01380046  RH  054%=      5-min Rain = 0
KSE2 060145Z 36011KT 14/05 A3016 RMK A01 T01380046  RH  054%=      5-min Rain = 0
KSE2 060146Z 36013KT 14/05 A3016 RMK A01 T01380046  RH  054%=      5-min Rain = 0
KSE2 060147Z 00011KT 14/05 A3016 RMK A01 T01380047  RH  054%=      5-min Rain = 0
KSE2 060148Z 35009KT 14/05 A3016 RMK A01 T01370047  RH  055%=      5-min Rain = 0
KSE2 060149Z 36012G21KT 14/05 A3017 RMK A01 T01360047  RH  055%=      5-min Rain = 0
KSE2 060150Z 01012KT 14/05 A3017 RMK A01 T01350047  RH  055%=      5-min Rain = 0
KSE2 060151Z 35016KT 14/05 A3017 RMK A01 T01350047  RH  055%=      5-min Rain = 0
KSE2 060152Z 35014G25KT 14/05 A3017 RMK A01 T01350047  RH  055%=      5-min Rain = 0
KSE2 060153Z 00017G24KT 13/05 A3017 RMK A01 T01340046  RH  055%=      5-min Rain = 0
KSE2 060154Z 36014G20KT 13/05 A3017 RMK A01 T01340046  RH  055%=      5-min Rain = 0
KSE2 060155Z 36016G22KT 13/05 A3017 RMK A01 T01330046  RH  055%=      5-min Rain = 0
KSE2 060156Z 36016G23KT 13/05 A3017 RMK A01 T01330046  RH  056%=      5-min Rain = 0
KSE2 060157Z 36014KT 13/05 A3017 RMK A01 T01320046  RH  056%=      5-min Rain = 0
KSE2 060158Z 00014G19KT 13/05 A3017 RMK A01 T01310045  RH  056%=      5-min Rain = 0
KSE2 060159Z 35017G22KT 13/05 A3017 RMK A01 T01310045  RH  056%=      5-min Rain = 0
KSE2 060200Z 35015KT 13/05 A3017 RMK A01 T01310045  RH  056%=      5-min Rain = 0
KSE2 060201Z 35012G19KT 13/05 A3017 RMK A01 T01300045  RH  056%=      5-min Rain = 0
KSE2 060202Z 35017G24KT 13/05 A3018 RMK A01 T01300045  RH  056%=      5-min Rain = 0
KSE2 060203Z 35015G20KT 13/05 A3018 RMK A01 T01300045  RH  056%=      5-min Rain = 0
KSE2 060204Z 35016KT 13/05 A3018 RMK A01 T01300045  RH  056%=      5-min Rain = 0
KSE2 060205Z 35017G24KT 13/04 A3018 RMK A01 T01290044  RH  056%=      5-min Rain = 0
KSE2 060206Z 36013KT 13/04 A3018 RMK A01 T01290044  RH  056%=      5-min Rain = 0
KSE2 060207Z 36012G20KT 13/04 A3018 RMK A01 T01280044  RH  057%=      5-min Rain = 0
KSE2 060208Z 36019KT 13/04 A3018 RMK A01 T01280044  RH  057%=      5-min Rain = 0
KSE2 060209Z 00017G23KT 13/04 A3018 RMK A01 T01280044  RH  057%=      5-min Rain = 0
KSE2 060210Z 36015KT 13/04 A3018 RMK A01 T01280044  RH  057%=      5-min Rain = 0
KSE2 060211Z 35013G19KT 13/04 A3018 RMK A01 T01280044  RH  057%=      5-min Rain = 0
KSE2 060212Z 35016KT 13/04 A3018 RMK A01 T01270044  RH  057%=      5-min Rain = 0
KSE2 060213Z 36014G19KT 13/04 A3018 RMK A01 T01270044  RH  057%=      5-min Rain = 0
KSE2 060214Z 01013G18KT 13/05 A3019 RMK A01 T01270045  RH  057%=      5-min Rain = 0
KSE2 060215Z 00010KT 13/04 A3019 RMK A01 T01260044  RH  057%=      5-min Rain = 0
KSE2 060216Z 01011KT 13/04 A3019 RMK A01 T01260044  RH  058%=      5-min Rain = 0
KSE2 060217Z 00008KT 13/05 A3019 RMK A01 T01250045  RH  058%=      5-min Rain = 0
KSE2 060218Z 36010KT 13/04 A3019 RMK A01 T01250044  RH  058%=      5-min Rain = 0
KSE2 060219Z 36011KT 13/05 A3019 RMK A01 T01250045  RH  058%=      5-min Rain = 0
KSE2 060220Z 36012G17KT 13/05 A3019 RMK A01 T01250045  RH  058%=      5-min Rain = 0
KSE2 060221Z 35013KT 12/04 A3019 RMK A01 T01240044  RH  058%=      5-min Rain = 0
KSE2 060222Z 35013KT 12/04 A3019 RMK A01 T01240044  RH  058%=      5-min Rain = 0
KSE2 060223Z 35010KT 12/05 A3019 RMK A01 T01240045  RH  058%=      5-min Rain = 0
KSE2 060224Z 36014KT 12/04 A3019 RMK A01 T01240044  RH  058%=      5-min Rain = 0
KSE2 060225Z 35010G15KT 12/04 A3019 RMK A01 T01230044  RH  058%=      5-min Rain = 0
KSE2 060226Z 36012KT 12/04 A3019 RMK A01 T01230044  RH  058%=      5-min Rain = 0
KSE2 060227Z 36012G18KT 12/04 A3019 RMK A01 T01230044  RH  058%=      5-min Rain = 0
KSE2 060228Z 35010KT 12/04 A302 RMK A01 T01230044  RH  058%=      5-min Rain = 0
KSE2 060229Z 35010KT 12/04 A302 RMK A01 T01220044  RH  059%=      5-min Rain = 0
KSE2 060230Z 35010KT 12/04 A302 RMK A01 T01220044  RH  059%=      5-min Rain = 0
KSE2 060231Z 35012G19KT 12/04 A302 RMK A01 T01220043  RH  059%=      5-min Rain = 0
KSE2 060232Z 36015KT 12/04 A302 RMK A01 T01220043  RH  059%=      5-min Rain = 0
KSE2 060233Z 34011KT 12/04 A302 RMK A01 T01220043  RH  059%=      5-min Rain = 0
KSE2 060234Z 35012KT 12/04 A302 RMK A01 T01220043  RH  059%=      5-min Rain = 0
KSE2 060235Z 35010KT 12/04 A302 RMK A01 T01210043  RH  059%=      5-min Rain = 0
KSE2 060236Z 35011G16KT 12/04 A302 RMK A01 T01210043  RH  059%=      5-min Rain = 0
KSE2 060237Z 35013G18KT 12/04 A302 RMK A01 T01210043  RH  059%=      5-min Rain = 0
KSE2 060238Z 35013KT 12/04 A302 RMK A01 T01210043  RH  059%=      5-min Rain = 0
KSE2 060239Z 36012G17KT 12/04 A302 RMK A01 T01210043  RH  059%=      5-min Rain = 0
KSE2 060240Z 35016G21KT 12/04 A302 RMK A01 T01210043  RH  059%=      5-min Rain = 0
KSE2 060241Z 35014G19KT 12/04 A302 RMK A01 T01210043  RH  059%=      5-min Rain = 0
KSE2 060242Z 35014G21KT 12/04 A302 RMK A01 T01210043  RH  059%=      5-min Rain = 0
KSE2 060243Z 35014G20KT 12/04 A302 RMK A01 T01210043  RH  059%=      5-min Rain = 0
KSE2 060244Z 35014KT 12/04 A302 RMK A01 T01210043  RH  059%=      5-min Rain = 0
KSE2 060245Z 35015G20KT 12/04 A302 RMK A01 T01210043  RH  059%=      5-min Rain = 0
KSE2 060246Z 34013KT 12/04 A302 RMK A01 T01210043  RH  059%=      5-min Rain = 0
KSE2 060247Z 34015G23KT 12/04 A302 RMK A01 T01200043  RH  059%=      5-min Rain = 0
KSE2 060248Z 35013KT 12/04 A302 RMK A01 T01200043  RH  059%=      5-min Rain = 0
KSE2 060249Z 35010KT 12/04 A302 RMK A01 T01200043  RH  059%=      5-min Rain = 0
KSE2 060250Z 36012KT 12/04 A302 RMK A01 T01190043  RH  060%=      5-min Rain = 0
KSE2 060251Z 00015KT 12/04 A302 RMK A01 T01190043  RH  060%=      5-min Rain = 0
KSE2 060252Z 36013G19KT 12/04 A302 RMK A01 T01190043  RH  060%=      5-min Rain = 0
KSE2 060253Z 35012G18KT 12/04 A302 RMK A01 T01190043  RH  060%=      5-min Rain = 0
KSE2 060254Z 35013G18KT 12/04 A302 RMK A01 T01190043  RH  060%=      5-min Rain = 0
KSE2 060255Z 35014KT 12/04 A302 RMK A01 T01180043  RH  060%=      5-min Rain = 0
KSE2 060256Z 36011KT 12/04 A302 RMK A01 T01180043  RH  060%=      5-min Rain = 0
KSE2 060257Z 35012KT 12/04 A302 RMK A01 T01180043  RH  060%=      5-min Rain = 0
KSE2 060258Z 34011G17KT 12/04 A302 RMK A01 T01170043  RH  060%=      5-min Rain = 0
KSE2 060259Z 36014G19KT 12/04 A302 RMK A01 T01170043  RH  061%=      5-min Rain = 0
KSE2 060300Z 35011G16KT 12/04 A3021 RMK A01 T01170043  RH  060%=      5-min Rain = 0
KSE2 060301Z 35010KT 12/04 A3021 RMK A01 T01170043  RH  060%=      5-min Rain = 0
KSE2 060302Z 35013G18KT 12/04 A3021 RMK A01 T01170043  RH  061%=      5-min Rain = 0
KSE2 060303Z 36015G22KT 12/04 A3021 RMK A01 T01170043  RH  061%=      5-min Rain = 0
KSE2 060304Z 35013G20KT 12/04 A3021 RMK A01 T01170043  RH  060%=      5-min Rain = 0
KSE2 060305Z 35012KT 12/04 A3021 RMK A01 T01160042  RH  060%=      5-min Rain = 0
KSE2 060306Z 34012KT 12/04 A3021 RMK A01 T01160042  RH  061%=      5-min Rain = 0
KSE2 060307Z 35012KT 12/04 A3021 RMK A01 T01160042  RH  061%=      5-min Rain = 0
KSE2 060308Z 35013KT 12/04 A3021 RMK A01 T01150042  RH  061%=      5-min Rain = 0
KSE2 060309Z 35011KT 12/04 A3021 RMK A01 T01150042  RH  061%=      5-min Rain = 0
KSE2 060310Z 35010KT 12/04 A3021 RMK A01 T01150043  RH  061%=      5-min Rain = 0
KSE2 060311Z 35011G16KT 11/04 A3021 RMK A01 T01140042  RH  061%=      5-min Rain = 0
KSE2 060312Z 35012KT 11/04 A3021 RMK A01 T01140043  RH  061%=      5-min Rain = 0
KSE2 060313Z 35014G20KT 11/04 A3021 RMK A01 T01140043  RH  061%=      5-min Rain = 0
KSE2 060314Z 35013G19KT 11/04 A3021 RMK A01 T01140042  RH  061%=      5-min Rain = 0
KSE2 060315Z 35009KT 11/04 A3021 RMK A01 T01140042  RH  061%=      5-min Rain = 0
KSE2 060316Z 34008G14KT 11/04 A3021 RMK A01 T01140042  RH  062%=      5-min Rain = 0
KSE2 060317Z 35012G18KT 11/04 A3021 RMK A01 T01130042  RH  062%=      5-min Rain = 0
KSE2 060318Z 35013KT 11/04 A3021 RMK A01 T01120041  RH  062%=      5-min Rain = 0
KSE2 060319Z 34010KT 11/04 A3021 RMK A01 T01130041  RH  061%=      5-min Rain = 0
KSE2 060320Z 35011G17KT 11/04 A3021 RMK A01 T01130041  RH  061%=      5-min Rain = 0
KSE2 060321Z 35014KT 11/04 A3021 RMK A01 T01130041  RH  061%=      5-min Rain = 0
KSE2 060322Z 35014G21KT 11/04 A3021 RMK A01 T01130040  RH  061%=      5-min Rain = 0
KSE2 060323Z 35015KT 11/04 A3021 RMK A01 T01130039  RH  061%=      5-min Rain = 0
KSE2 060324Z 34018G23KT 11/04 A3021 RMK A01 T01130039  RH  060%=      5-min Rain = 0
KSE2 060325Z 35018G24KT 11/04 A3021 RMK A01 T01140039  RH  060%=      5-min Rain = 0
KSE2 060326Z 35016G21KT 11/04 A3021 RMK A01 T01140039  RH  060%=      5-min Rain = 0
KSE2 060327Z 34014KT 11/04 A3021 RMK A01 T01140039  RH  060%=      5-min Rain = 0
KSE2 060328Z 35011KT 11/04 A3021 RMK A01 T01140039  RH  060%=      5-min Rain = 0
KSE2 060329Z 35013G19KT 11/04 A3021 RMK A01 T01130039  RH  060%=      5-min Rain = 0
KSE2 060330Z 35019KT 11/04 A3021 RMK A01 T01120039  RH  061%=      5-min Rain = 0
KSE2 060331Z 35016KT 11/04 A3022 RMK A01 T01120039  RH  061%=      5-min Rain = 0
KSE2 060332Z 35017G25KT 11/04 A3022 RMK A01 T01120039  RH  061%=      5-min Rain = 0
KSE2 060333Z 35016G21KT 11/04 A3022 RMK A01 T01120040  RH  061%=      5-min Rain = 0
KSE2 060334Z 35016G21KT 11/04 A3022 RMK A01 T01120040  RH  061%=      5-min Rain = 0
KSE2 060335Z 35015G21KT 11/04 A3022 RMK A01 T01120040  RH  061%=      5-min Rain = 0
KSE2 060336Z 36016G24KT 11/04 A3022 RMK A01 T01120040  RH  061%=      5-min Rain = 0
KSE2 060337Z 35017KT 11/04 A3022 RMK A01 T01110040  RH  062%=      5-min Rain = 0
KSE2 060338Z 35016KT 11/04 A3022 RMK A01 T01110040  RH  062%=      5-min Rain = 0
KSE2 060339Z 35011G18KT 11/04 A3022 RMK A01 T01110040  RH  062%=      5-min Rain = 0
KSE2 060340Z 35017G23KT 11/04 A3022 RMK A01 T01110041  RH  062%=      5-min Rain = 0
KSE2 060341Z 35012G20KT 11/04 A3022 RMK A01 T01100041  RH  062%=      5-min Rain = 0
KSE2 060342Z 35011KT 11/04 A3022 RMK A01 T01100041  RH  062%=      5-min Rain = 0
KSE2 060343Z 34013G19KT 11/04 A3022 RMK A01 T01100041  RH  063%=      5-min Rain = 0
KSE2 060344Z 34014KT 11/04 A3022 RMK A01 T01090041  RH  063%=      5-min Rain = 0
KSE2 060345Z 34016KT 11/04 A3022 RMK A01 T01090041  RH  063%=      5-min Rain = 0
KSE2 060346Z 34010G15KT 11/04 A3022 RMK A01 T01090042  RH  063%=      5-min Rain = 0
KSE2 060347Z 34012G20KT 11/04 A3022 RMK A01 T01090042  RH  063%=      5-min Rain = 0
KSE2 060348Z 35013KT 11/04 A3022 RMK A01 T01090042  RH  063%=      5-min Rain = 0
KSE2 060349Z 35014G19KT 11/04 A3022 RMK A01 T01080042  RH  064%=      5-min Rain = 0
KSE2 060350Z 35014G20KT 11/04 A3022 RMK A01 T01090042  RH  064%=      5-min Rain = 0
KSE2 060351Z 35014G20KT 11/04 A3022 RMK A01 T01080042  RH  064%=      5-min Rain = 0
KSE2 060352Z 35012KT 11/04 A3022 RMK A01 T01080042  RH  064%=      5-min Rain = 0
KSE2 060353Z 35013G18KT 11/04 A3022 RMK A01 T01080042  RH  064%=      5-min Rain = 0
KSE2 060354Z 35013KT 11/04 A3022 RMK A01 T01080042  RH  064%=      5-min Rain = 0
KSE2 060355Z 35012G17KT 11/04 A3022 RMK A01 T01080042  RH  064%=      5-min Rain = 0
KSE2 060356Z 35011KT 11/04 A3022 RMK A01 T01080042  RH  064%=      5-min Rain = 0
KSE2 060357Z 35012G18KT 11/04 A3022 RMK A01 T01080043  RH  064%=      5-min Rain = 0
KSE2 060358Z 34012KT 11/04 A3022 RMK A01 T01080043  RH  064%=      5-min Rain = 0
KSE2 060359Z 35013KT 11/04 A3022 RMK A01 T01080043  RH  064%=      5-min Rain = 0
KSE2 060400Z 34013G19KT 11/04 A3022 RMK A01 T01080043  RH  064%=      5-min Rain = 0
KSE2 060401Z 35010KT 11/04 A3022 RMK A01 T01080043  RH  064%=      5-min Rain = 0
KSE2 060402Z 35011G16KT 11/04 A3022 RMK A01 T01080043  RH  064%=      5-min Rain = 0
KSE2 060403Z 34010KT 11/04 A3022 RMK A01 T01080044  RH  064%=      5-min Rain = 0
KSE2 060404Z 35011KT 11/04 A3022 RMK A01 T01080044  RH  064%=      5-min Rain = 0
KSE2 060405Z 35010KT 11/04 A3022 RMK A01 T01080044  RH  064%=      5-min Rain = 0
KSE2 060406Z 35012KT 11/04 A3022 RMK A01 T01080044  RH  064%=      5-min Rain = 0
KSE2 060407Z 35010KT 11/04 A3022 RMK A01 T01080044  RH  064%=      5-min Rain = 0
KSE2 060408Z 34008G13KT 11/04 A3022 RMK A01 T01090044  RH  064%=      5-min Rain = 0
KSE2 060409Z 35008KT 11/05 A3022 RMK A01 T01090045  RH  065%=      5-min Rain = 0
KSE2 060410Z 34012G17KT 11/05 A3022 RMK A01 T01090045  RH  065%=      5-min Rain = 0
KSE2 060411Z 35013G20KT 11/05 A3022 RMK A01 T01090045  RH  065%=      5-min Rain = 0
KSE2 060412Z 35014G21KT 11/05 A3022 RMK A01 T01100045  RH  065%=      5-min Rain = 0
KSE2 060413Z 35011G17KT 11/05 A3022 RMK A01 T01100046  RH  064%=      5-min Rain = 0
KSE2 060414Z 35014KT 11/05 A3022 RMK A01 T01100046  RH  065%=      5-min Rain = 0
KSE2 060415Z 35015KT 11/05 A3022 RMK A01 T01100046  RH  064%=      5-min Rain = 0
KSE2 060416Z 35013KT 11/05 A3022 RMK A01 T01100046  RH  064%=      5-min Rain = 0
KSE2 060417Z 35014KT 11/05 A3022 RMK A01 T01110046  RH  064%=      5-min Rain = 0
KSE2 060418Z 35014KT 11/05 A3022 RMK A01 T01100046  RH  065%=      5-min Rain = 0
KSE2 060419Z 35012KT 11/05 A3023 RMK A01 T01100046  RH  065%=      5-min Rain = 0
KSE2 060420Z 35009G15KT 11/05 A3022 RMK A01 T01110047  RH  065%=      5-min Rain = 0
KSE2 060421Z 35011KT 11/05 A3022 RMK A01 T01110047  RH  065%=      5-min Rain = 0
KSE2 060422Z 35009KT 11/05 A3022 RMK A01 T01110047  RH  065%=      5-min Rain = 0
KSE2 060423Z 36011KT 11/05 A3022 RMK A01 T01110048  RH  065%=      5-min Rain = 0
KSE2 060424Z 35011G16KT 11/05 A3022 RMK A01 T01110048  RH  065%=      5-min Rain = 0
KSE2 060425Z 35012KT 11/05 A3023 RMK A01 T01110048  RH  065%=      5-min Rain = 0
KSE2 060426Z 36013G20KT 11/05 A3023 RMK A01 T01110049  RH  065%=      5-min Rain = 0
KSE2 060427Z 35015G21KT 11/05 A3022 RMK A01 T01110049  RH  066%=      5-min Rain = 0
KSE2 060428Z 36018KT 11/05 A3022 RMK A01 T01110049  RH  066%=      5-min Rain = 0
KSE2 060429Z 01013G18KT 11/05 A3022 RMK A01 T01110049  RH  066%=      5-min Rain = 0
KSE2 060430Z 36016KT 11/05 A3022 RMK A01 T01110050  RH  066%=      5-min Rain = 0
KSE2 060431Z 01014KT 11/05 A3022 RMK A01 T01110050  RH  066%=      5-min Rain = 0
KSE2 060432Z 00012KT 11/05 A3022 RMK A01 T01110050  RH  066%=      5-min Rain = 0
KSE2 060433Z 36013KT 11/05 A3022 RMK A01 T01110051  RH  066%=      5-min Rain = 0
KSE2 060434Z 36012KT 11/05 A3023 RMK A01 T01110051  RH  066%=      5-min Rain = 0
KSE2 060435Z 00013G20KT 11/05 A3023 RMK A01 T01110051  RH  066%=      5-min Rain = 0
KSE2 060436Z 35018KT 11/05 A3023 RMK A01 T01110051  RH  066%=      5-min Rain = 0
KSE2 060437Z 36012G17KT 11/05 A3023 RMK A01 T01110051  RH  067%=      5-min Rain = 0
KSE2 060438Z 36013KT 11/05 A3023 RMK A01 T01110051  RH  067%=      5-min Rain = 0
KSE2 060439Z 36012KT 11/05 A3023 RMK A01 T01110051  RH  067%=      5-min Rain = 0
KSE2 060440Z 00012KT 11/05 A3023 RMK A01 T01110051  RH  067%=      5-min Rain = 0
KSE2 060441Z 01010KT 11/05 A3023 RMK A01 T01110051  RH  067%=      5-min Rain = 0
KSE2 060442Z 00011G18KT 11/05 A3023 RMK A01 T01100051  RH  067%=      5-min Rain = 0
KSE2 060443Z 36011KT 11/05 A3023 RMK A01 T01110052  RH  067%=      5-min Rain = 0
KSE2 060444Z 36012G17KT 11/05 A3023 RMK A01 T01100052  RH  067%=      5-min Rain = 0
KSE2 060445Z 36012KT 11/05 A3023 RMK A01 T01100052  RH  067%=      5-min Rain = 0
KSE2 060446Z 36014G20KT 11/05 A3023 RMK A01 T01100052  RH  067%=      5-min Rain = 0
KSE2 060447Z 36013G18KT 11/05 A3023 RMK A01 T01100052  RH  068%=      5-min Rain = 0
KSE2 060448Z 00014KT 11/05 A3023 RMK A01 T01100052  RH  068%=      5-min Rain = 0
KSE2 060449Z 00012G18KT 11/05 A3023 RMK A01 T01100052  RH  068%=      5-min Rain = 0
KSE2 060450Z 36012G17KT 11/05 A3023 RMK A01 T01090052  RH  068%=      5-min Rain = 0
KSE2 060451Z 36013KT 11/05 A3023 RMK A01 T01090052  RH  068%=      5-min Rain = 0
KSE2 060452Z 35013G18KT 11/05 A3023 RMK A01 T01090052  RH  068%=      5-min Rain = 0
KSE2 060453Z 36012KT 11/05 A3023 RMK A01 T01090052  RH  068%=      5-min Rain = 0
KSE2 060454Z 35012KT 11/05 A3023 RMK A01 T01090052  RH  068%=      5-min Rain = 0
KSE2 060455Z 00009KT 11/05 A3023 RMK A01 T01090053  RH  068%=      5-min Rain = 0
KSE2 060456Z 35010G15KT 11/05 A3023 RMK A01 T01090053  RH  068%=      5-min Rain = 0
KSE2 060457Z 35011G18KT 11/05 A3023 RMK A01 T01090053  RH  068%=      5-min Rain = 0
KSE2 060458Z 00016KT 11/05 A3023 RMK A01 T01090052  RH  068%=      5-min Rain = 0
KSE2 060459Z 36014KT 11/05 A3023 RMK A01 T01090052  RH  068%=      5-min Rain = 0
KSE2 060500Z 36014G19KT 11/05 A3023 RMK A01 T01080052  RH  068%=      5-min Rain = 0
KSE2 060501Z 35013G19KT 11/05 A3023 RMK A01 T01080052  RH  068%=      5-min Rain = 0
KSE2 060502Z 35012G18KT 11/05 A3023 RMK A01 T01080052  RH  069%=      5-min Rain = 0
KSE2 060503Z 00011G16KT 11/05 A3023 RMK A01 T01070052  RH  069%=      5-min Rain = 0
KSE2 060504Z 35016KT 11/05 A3023 RMK A01 T01070052  RH  069%=      5-min Rain = 0
KSE2 060505Z 36012KT 11/05 A3023 RMK A01 T01060052  RH  069%=      5-min Rain = 0
KSE2 060506Z 36009KT 11/05 A3023 RMK A01 T01060052  RH  069%=      5-min Rain = 0
KSE2 060507Z 36012G17KT 11/05 A3023 RMK A01 T01060052  RH  069%=      5-min Rain = 0
KSE2 060508Z 36012G17KT 11/05 A3023 RMK A01 T01050052  RH  070%=      5-min Rain = 0
KSE2 060509Z 00012G17KT 11/05 A3023 RMK A01 T01050052  RH  070%=      5-min Rain = 0
KSE2 060510Z 00009KT 11/05 A3023 RMK A01 T01050052  RH  070%=      5-min Rain = 0
KSE2 060511Z 01011KT 11/05 A3023 RMK A01 T01050052  RH  070%=      5-min Rain = 0
KSE2 060512Z 36011KT 10/05 A3023 RMK A01 T01040052  RH  070%=      5-min Rain = 0
KSE2 060513Z 35011KT 11/05 A3023 RMK A01 T01050053  RH  070%=      5-min Rain = 0
KSE2 060514Z 35010KT 11/05 A3022 RMK A01 T01050053  RH  070%=      5-min Rain = 0
KSE2 060515Z 35010KT 10/05 A3022 RMK A01 T01040052  RH  070%=      5-min Rain = 0
KSE2 060516Z 00009KT 10/05 A3023 RMK A01 T01040053  RH  070%=      5-min Rain = 0
KSE2 060517Z 35011KT 10/05 A3023 RMK A01 T01040052  RH  070%=      5-min Rain = 0
KSE2 060518Z 36009KT 10/05 A3022 RMK A01 T01040052  RH  071%=      5-min Rain = 0
KSE2 060519Z 36008KT 10/05 A3023 RMK A01 T01040053  RH  071%=      5-min Rain = 0
KSE2 060520Z 36010KT 10/05 A3023 RMK A01 T01030052  RH  071%=      5-min Rain = 0
KSE2 060521Z 35010KT 10/05 A3023 RMK A01 T01030052  RH  071%=      5-min Rain = 0
KSE2 060522Z 35010KT 10/05 A3023 RMK A01 T01030052  RH  071%=      5-min Rain = 0
KSE2 060523Z 35009KT 10/05 A3023 RMK A01 T01030053  RH  071%=      5-min Rain = 0
KSE2 060524Z 35008KT 10/05 A3022 RMK A01 T01020052  RH  071%=      5-min Rain = 0
KSE2 060525Z 36009KT 10/05 A3022 RMK A01 T01020052  RH  071%=      5-min Rain = 0
KSE2 060526Z 35011KT 10/05 A3022 RMK A01 T01020053  RH  071%=      5-min Rain = 0
KSE2 060527Z 35010KT 10/05 A3022 RMK A01 T01020054  RH  072%=      5-min Rain = 0
KSE2 060528Z 36011KT 10/05 A3023 RMK A01 T01020054  RH  072%=      5-min Rain = 0
KSE2 060529Z 35011G16KT 10/05 A3023 RMK A01 T01020054  RH  072%=      5-min Rain = 0
KSE2 060530Z 36011KT 10/05 A3023 RMK A01 T01020054  RH  072%=      5-min Rain = 0
KSE2 060531Z 35010KT 10/06 A3023 RMK A01 T01030055  RH  072%=      5-min Rain = 0
KSE2 060532Z 35008KT 10/06 A3023 RMK A01 T01030055  RH  072%=      5-min Rain = 0
KSE2 060533Z 35008G13KT 10/06 A3023 RMK A01 T01030055  RH  072%=      5-min Rain = 0
KSE2 060534Z 35011KT 10/06 A3023 RMK A01 T01030055  RH  072%=      5-min Rain = 0
KSE2 060535Z 35010KT 10/06 A3023 RMK A01 T01030055  RH  072%=      5-min Rain = 0
KSE2 060536Z 35009KT 10/06 A3023 RMK A01 T01030055  RH  072%=      5-min Rain = 0
KSE2 060537Z 34011KT 10/06 A3023 RMK A01 T01030056  RH  073%=      5-min Rain = 0
KSE2 060538Z 35010KT 10/06 A3023 RMK A01 T01030056  RH  073%=      5-min Rain = 0
KSE2 060539Z 34010KT 10/06 A3023 RMK A01 T01030056  RH  073%=      5-min Rain = 0
KSE2 060540Z 35007KT 10/06 A3023 RMK A01 T01030056  RH  073%=      5-min Rain = 0
KSE2 060541Z 36009G15KT 10/06 A3023 RMK A01 T01030056  RH  073%=      5-min Rain = 0
KSE2 060542Z 35009KT 10/06 A3023 RMK A01 T01020056  RH  073%=      5-min Rain = 0
KSE2 060543Z 36011G16KT 10/06 A3023 RMK A01 T01020056  RH  073%=      5-min Rain = 0
KSE2 060544Z 35011KT 10/06 A3023 RMK A01 T01020056  RH  073%=      5-min Rain = 0
KSE2 060545Z 35010KT 10/06 A3023 RMK A01 T01030057  RH  073%=      5-min Rain = 0
KSE2 060546Z 35011KT 10/06 A3023 RMK A01 T01030057  RH  073%=      5-min Rain = 0
KSE2 060547Z 35013KT 10/06 A3023 RMK A01 T01030057  RH  073%=      5-min Rain = 0
KSE2 060548Z 35011G16KT 10/06 A3023 RMK A01 T01030057  RH  073%=      5-min Rain = 0
KSE2 060549Z 35008KT 10/06 A3023 RMK A01 T01030057  RH  073%=      5-min Rain = 0
KSE2 060550Z 35009KT 10/06 A3023 RMK A01 T01030057  RH  073%=      5-min Rain = 0
KSE2 060551Z 35011G18KT 10/06 A3023 RMK A01 T01030057  RH  073%=      5-min Rain = 0
KSE2 060552Z 35012KT 10/06 A3023 RMK A01 T01030057  RH  073%=      5-min Rain = 0
KSE2 060553Z 35010KT 10/06 A3023 RMK A01 T01030057  RH  073%=      5-min Rain = 0
KSE2 060554Z 36010KT 10/06 A3022 RMK A01 T01030057  RH  073%=      5-min Rain = 0
KSE2 060555Z 35012KT 10/06 A3022 RMK A01 T01030057  RH  073%=      5-min Rain = 0
KSE2 060556Z 35010G15KT 10/06 A3022 RMK A01 T01030057  RH  073%=      5-min Rain = 0
KSE2 060557Z 35010KT 10/06 A3022 RMK A01 T01030057  RH  073%=      5-min Rain = 0
KSE2 060558Z 35012KT 10/06 A3022 RMK A01 T01030057  RH  073%=      5-min Rain = 0
KSE2 060559Z 35012KT 10/06 A3022 RMK A01 T01020057  RH  074%=      5-min Rain = 0

Page generated in 0.1867 seconds.